<?xml version="1.0" encoding="UTF-8" standalone="no" ?>
<gpx xmlns="http://www.topografix.com/GPX/1/1" xmlns:xsi="http://www.w3.org/2001/XMLSchema-instance" xsi:schemaLocation="http://www.topografix.com/GPX/1/1 http://www.topografix.com/GPX/1/1/gpx.xsd" version="1.1" creator="VisuGPX - https://www.visugpx.com">
  <metadata>
    <name>Les balades du confinement</name>
  </metadata>
  <trk>
    <name><![CDATA[6 avril]]></name>
    <trkseg>
      <trkpt lat="43.55015" lon="1.4768">
        <ele>222.808</ele>
        <time>2020-04-06T15:08:49Z</time>
      </trkpt>
      <trkpt lat="43.54998" lon="1.47676">
        <ele>206.57</ele>
        <time>2020-04-06T15:08:55Z</time>
      </trkpt>
      <trkpt lat="43.55002" lon="1.47683">
        <ele>207.762</ele>
        <time>2020-04-06T15:09:00Z</time>
      </trkpt>
      <trkpt lat="43.54998" lon="1.47685">
        <ele>208.841</ele>
        <time>2020-04-06T15:09:05Z</time>
      </trkpt>
      <trkpt lat="43.54993" lon="1.47689">
        <ele>209.797</ele>
        <time>2020-04-06T15:09:11Z</time>
      </trkpt>
      <trkpt lat="43.54991" lon="1.47691">
        <ele>211.404</ele>
        <time>2020-04-06T15:09:17Z</time>
      </trkpt>
      <trkpt lat="43.54986" lon="1.47695">
        <ele>211.315</ele>
        <time>2020-04-06T15:09:23Z</time>
      </trkpt>
      <trkpt lat="43.54981" lon="1.47698">
        <ele>211.298</ele>
        <time>2020-04-06T15:09:29Z</time>
      </trkpt>
      <trkpt lat="43.54975" lon="1.47704">
        <ele>211.235</ele>
        <time>2020-04-06T15:09:34Z</time>
      </trkpt>
      <trkpt lat="43.54969" lon="1.47709">
        <ele>211.176</ele>
        <time>2020-04-06T15:09:40Z</time>
      </trkpt>
      <trkpt lat="43.54964" lon="1.47713">
        <ele>211.131</ele>
        <time>2020-04-06T15:09:45Z</time>
      </trkpt>
      <trkpt lat="43.54957" lon="1.47716">
        <ele>211.069</ele>
        <time>2020-04-06T15:09:51Z</time>
      </trkpt>
      <trkpt lat="43.54952" lon="1.4772">
        <ele>211.017</ele>
        <time>2020-04-06T15:09:56Z</time>
      </trkpt>
      <trkpt lat="43.5495" lon="1.47721">
        <ele>210.958</ele>
        <time>2020-04-06T15:10:01Z</time>
      </trkpt>
      <trkpt lat="43.54945" lon="1.47724">
        <ele>210.857</ele>
        <time>2020-04-06T15:10:07Z</time>
      </trkpt>
      <trkpt lat="43.54938" lon="1.47728">
        <ele>210.747</ele>
        <time>2020-04-06T15:10:13Z</time>
      </trkpt>
      <trkpt lat="43.54931" lon="1.47731">
        <ele>210.64</ele>
        <time>2020-04-06T15:10:18Z</time>
      </trkpt>
      <trkpt lat="43.54924" lon="1.47734">
        <ele>210.521</ele>
        <time>2020-04-06T15:10:24Z</time>
      </trkpt>
      <trkpt lat="43.54921" lon="1.47737">
        <ele>210.438</ele>
        <time>2020-04-06T15:10:30Z</time>
      </trkpt>
      <trkpt lat="43.54917" lon="1.4774">
        <ele>210.407</ele>
        <time>2020-04-06T15:10:35Z</time>
      </trkpt>
      <trkpt lat="43.5491" lon="1.47744">
        <ele>210.398</ele>
        <time>2020-04-06T15:10:41Z</time>
      </trkpt>
      <trkpt lat="43.54902" lon="1.47749">
        <ele>210.373</ele>
        <time>2020-04-06T15:10:47Z</time>
      </trkpt>
      <trkpt lat="43.54896" lon="1.47753">
        <ele>210.347</ele>
        <time>2020-04-06T15:10:53Z</time>
      </trkpt>
      <trkpt lat="43.54891" lon="1.47758">
        <ele>210.338</ele>
        <time>2020-04-06T15:10:59Z</time>
      </trkpt>
      <trkpt lat="43.54884" lon="1.47762">
        <ele>210.344</ele>
        <time>2020-04-06T15:11:05Z</time>
      </trkpt>
      <trkpt lat="43.54878" lon="1.47765">
        <ele>210.358</ele>
        <time>2020-04-06T15:11:10Z</time>
      </trkpt>
      <trkpt lat="43.54873" lon="1.47768">
        <ele>210.374</ele>
        <time>2020-04-06T15:11:15Z</time>
      </trkpt>
      <trkpt lat="43.54867" lon="1.47771">
        <ele>210.385</ele>
        <time>2020-04-06T15:11:20Z</time>
      </trkpt>
      <trkpt lat="43.5486" lon="1.47775">
        <ele>210.435</ele>
        <time>2020-04-06T15:11:26Z</time>
      </trkpt>
      <trkpt lat="43.54854" lon="1.47779">
        <ele>210.484</ele>
        <time>2020-04-06T15:11:32Z</time>
      </trkpt>
      <trkpt lat="43.54847" lon="1.47783">
        <ele>210.521</ele>
        <time>2020-04-06T15:11:38Z</time>
      </trkpt>
      <trkpt lat="43.54843" lon="1.47786">
        <ele>210.55</ele>
        <time>2020-04-06T15:11:43Z</time>
      </trkpt>
      <trkpt lat="43.54837" lon="1.4779">
        <ele>210.587</ele>
        <time>2020-04-06T15:11:49Z</time>
      </trkpt>
      <trkpt lat="43.5483" lon="1.47792">
        <ele>210.627</ele>
        <time>2020-04-06T15:11:55Z</time>
      </trkpt>
      <trkpt lat="43.54824" lon="1.47795">
        <ele>210.662</ele>
        <time>2020-04-06T15:12:00Z</time>
      </trkpt>
      <trkpt lat="43.5482" lon="1.47798">
        <ele>210.717</ele>
        <time>2020-04-06T15:12:06Z</time>
      </trkpt>
      <trkpt lat="43.54817" lon="1.478">
        <ele>210.777</ele>
        <time>2020-04-06T15:12:12Z</time>
      </trkpt>
      <trkpt lat="43.5481" lon="1.47804">
        <ele>210.83</ele>
        <time>2020-04-06T15:12:18Z</time>
      </trkpt>
      <trkpt lat="43.54798" lon="1.47799">
        <ele>210.871</ele>
        <time>2020-04-06T15:12:24Z</time>
      </trkpt>
      <trkpt lat="43.54795" lon="1.47806">
        <ele>210.942</ele>
        <time>2020-04-06T15:12:29Z</time>
      </trkpt>
      <trkpt lat="43.54789" lon="1.47815">
        <ele>211.102</ele>
        <time>2020-04-06T15:12:35Z</time>
      </trkpt>
      <trkpt lat="43.54785" lon="1.47823">
        <ele>211.291</ele>
        <time>2020-04-06T15:12:41Z</time>
      </trkpt>
      <trkpt lat="43.54781" lon="1.47834">
        <ele>211.52</ele>
        <time>2020-04-06T15:12:47Z</time>
      </trkpt>
      <trkpt lat="43.54776" lon="1.47842">
        <ele>211.777</ele>
        <time>2020-04-06T15:12:53Z</time>
      </trkpt>
      <trkpt lat="43.54773" lon="1.47844">
        <ele>211.993</ele>
        <time>2020-04-06T15:12:58Z</time>
      </trkpt>
      <trkpt lat="43.54768" lon="1.47845">
        <ele>212.229</ele>
        <time>2020-04-06T15:13:04Z</time>
      </trkpt>
      <trkpt lat="43.54764" lon="1.47846">
        <ele>212.41</ele>
        <time>2020-04-06T15:13:09Z</time>
      </trkpt>
      <trkpt lat="43.54753" lon="1.4785">
        <ele>212.621</ele>
        <time>2020-04-06T15:13:14Z</time>
      </trkpt>
      <trkpt lat="43.5475" lon="1.47854">
        <ele>212.908</ele>
        <time>2020-04-06T15:13:20Z</time>
      </trkpt>
      <trkpt lat="43.54748" lon="1.47854">
        <ele>213.156</ele>
        <time>2020-04-06T15:13:26Z</time>
      </trkpt>
      <trkpt lat="43.54745" lon="1.47852">
        <ele>213.263</ele>
        <time>2020-04-06T15:13:31Z</time>
      </trkpt>
      <trkpt lat="43.54744" lon="1.47847">
        <ele>213.336</ele>
        <time>2020-04-06T15:13:37Z</time>
      </trkpt>
      <trkpt lat="43.54747" lon="1.47851">
        <ele>213.447</ele>
        <time>2020-04-06T15:13:42Z</time>
      </trkpt>
      <trkpt lat="43.54748" lon="1.47855">
        <ele>213.677</ele>
        <time>2020-04-06T15:13:47Z</time>
      </trkpt>
      <trkpt lat="43.54744" lon="1.47857">
        <ele>213.934</ele>
        <time>2020-04-06T15:13:53Z</time>
      </trkpt>
      <trkpt lat="43.54738" lon="1.47857">
        <ele>214.13</ele>
        <time>2020-04-06T15:13:58Z</time>
      </trkpt>
      <trkpt lat="43.54731" lon="1.47862">
        <ele>214.349</ele>
        <time>2020-04-06T15:14:04Z</time>
      </trkpt>
      <trkpt lat="43.54727" lon="1.4787">
        <ele>214.52</ele>
        <time>2020-04-06T15:14:09Z</time>
      </trkpt>
      <trkpt lat="43.54724" lon="1.47877">
        <ele>214.722</ele>
        <time>2020-04-06T15:14:15Z</time>
      </trkpt>
      <trkpt lat="43.54723" lon="1.47877">
        <ele>214.871</ele>
        <time>2020-04-06T15:14:20Z</time>
      </trkpt>
      <trkpt lat="43.54719" lon="1.47872">
        <ele>215.026</ele>
        <time>2020-04-06T15:14:26Z</time>
      </trkpt>
      <trkpt lat="43.54713" lon="1.47868">
        <ele>215.168</ele>
        <time>2020-04-06T15:14:32Z</time>
      </trkpt>
      <trkpt lat="43.54708" lon="1.47864">
        <ele>215.297</ele>
        <time>2020-04-06T15:14:38Z</time>
      </trkpt>
      <trkpt lat="43.54698" lon="1.47861">
        <ele>215.417</ele>
        <time>2020-04-06T15:14:44Z</time>
      </trkpt>
      <trkpt lat="43.54692" lon="1.47857">
        <ele>215.519</ele>
        <time>2020-04-06T15:14:49Z</time>
      </trkpt>
      <trkpt lat="43.54685" lon="1.47854">
        <ele>215.642</ele>
        <time>2020-04-06T15:14:55Z</time>
      </trkpt>
      <trkpt lat="43.54678" lon="1.4785">
        <ele>215.759</ele>
        <time>2020-04-06T15:15:01Z</time>
      </trkpt>
      <trkpt lat="43.54672" lon="1.47848">
        <ele>215.874</ele>
        <time>2020-04-06T15:15:07Z</time>
      </trkpt>
      <trkpt lat="43.54667" lon="1.47844">
        <ele>215.986</ele>
        <time>2020-04-06T15:15:13Z</time>
      </trkpt>
      <trkpt lat="43.54661" lon="1.47841">
        <ele>216.086</ele>
        <time>2020-04-06T15:15:19Z</time>
      </trkpt>
      <trkpt lat="43.54655" lon="1.47841">
        <ele>216.174</ele>
        <time>2020-04-06T15:15:25Z</time>
      </trkpt>
      <trkpt lat="43.54649" lon="1.47839">
        <ele>216.242</ele>
        <time>2020-04-06T15:15:30Z</time>
      </trkpt>
      <trkpt lat="43.54641" lon="1.47835">
        <ele>216.326</ele>
        <time>2020-04-06T15:15:36Z</time>
      </trkpt>
      <trkpt lat="43.54637" lon="1.47833">
        <ele>216.393</ele>
        <time>2020-04-06T15:15:41Z</time>
      </trkpt>
      <trkpt lat="43.54628" lon="1.47832">
        <ele>216.472</ele>
        <time>2020-04-06T15:15:47Z</time>
      </trkpt>
      <trkpt lat="43.54624" lon="1.47831">
        <ele>216.53</ele>
        <time>2020-04-06T15:15:52Z</time>
      </trkpt>
      <trkpt lat="43.54618" lon="1.47833">
        <ele>216.585</ele>
        <time>2020-04-06T15:15:58Z</time>
      </trkpt>
      <trkpt lat="43.54614" lon="1.47837">
        <ele>216.618</ele>
        <time>2020-04-06T15:16:03Z</time>
      </trkpt>
      <trkpt lat="43.54613" lon="1.47845">
        <ele>216.646</ele>
        <time>2020-04-06T15:16:09Z</time>
      </trkpt>
      <trkpt lat="43.54611" lon="1.47855">
        <ele>216.679</ele>
        <time>2020-04-06T15:16:14Z</time>
      </trkpt>
      <trkpt lat="43.54611" lon="1.47859">
        <ele>216.72</ele>
        <time>2020-04-06T15:16:19Z</time>
      </trkpt>
      <trkpt lat="43.54614" lon="1.47866">
        <ele>216.762</ele>
        <time>2020-04-06T15:16:25Z</time>
      </trkpt>
      <trkpt lat="43.54615" lon="1.47878">
        <ele>216.795</ele>
        <time>2020-04-06T15:16:31Z</time>
      </trkpt>
      <trkpt lat="43.54616" lon="1.47891">
        <ele>216.816</ele>
        <time>2020-04-06T15:16:37Z</time>
      </trkpt>
      <trkpt lat="43.54617" lon="1.479">
        <ele>216.824</ele>
        <time>2020-04-06T15:16:42Z</time>
      </trkpt>
      <trkpt lat="43.54619" lon="1.4791">
        <ele>216.831</ele>
        <time>2020-04-06T15:16:48Z</time>
      </trkpt>
      <trkpt lat="43.54621" lon="1.47918">
        <ele>216.837</ele>
        <time>2020-04-06T15:16:54Z</time>
      </trkpt>
      <trkpt lat="43.54623" lon="1.47928">
        <ele>216.845</ele>
        <time>2020-04-06T15:17:00Z</time>
      </trkpt>
      <trkpt lat="43.54624" lon="1.47938">
        <ele>216.85</ele>
        <time>2020-04-06T15:17:06Z</time>
      </trkpt>
      <trkpt lat="43.54625" lon="1.47947">
        <ele>216.85</ele>
        <time>2020-04-06T15:17:11Z</time>
      </trkpt>
      <trkpt lat="43.54627" lon="1.47956">
        <ele>216.848</ele>
        <time>2020-04-06T15:17:17Z</time>
      </trkpt>
      <trkpt lat="43.54628" lon="1.47963">
        <ele>216.836</ele>
        <time>2020-04-06T15:17:23Z</time>
      </trkpt>
      <trkpt lat="43.54628" lon="1.47973">
        <ele>216.813</ele>
        <time>2020-04-06T15:17:29Z</time>
      </trkpt>
      <trkpt lat="43.54627" lon="1.47981">
        <ele>216.787</ele>
        <time>2020-04-06T15:17:35Z</time>
      </trkpt>
      <trkpt lat="43.54625" lon="1.47986">
        <ele>216.766</ele>
        <time>2020-04-06T15:17:40Z</time>
      </trkpt>
      <trkpt lat="43.54621" lon="1.47991">
        <ele>216.743</ele>
        <time>2020-04-06T15:17:46Z</time>
      </trkpt>
      <trkpt lat="43.54618" lon="1.47991">
        <ele>216.728</ele>
        <time>2020-04-06T15:17:52Z</time>
      </trkpt>
      <trkpt lat="43.54616" lon="1.4799">
        <ele>216.714</ele>
        <time>2020-04-06T15:17:58Z</time>
      </trkpt>
      <trkpt lat="43.54611" lon="1.47991">
        <ele>216.695</ele>
        <time>2020-04-06T15:18:03Z</time>
      </trkpt>
      <trkpt lat="43.54606" lon="1.47993">
        <ele>216.666</ele>
        <time>2020-04-06T15:18:08Z</time>
      </trkpt>
      <trkpt lat="43.546" lon="1.47995">
        <ele>216.619</ele>
        <time>2020-04-06T15:18:14Z</time>
      </trkpt>
      <trkpt lat="43.54594" lon="1.47997">
        <ele>216.572</ele>
        <time>2020-04-06T15:18:19Z</time>
      </trkpt>
      <trkpt lat="43.54588" lon="1.48001">
        <ele>216.511</ele>
        <time>2020-04-06T15:18:25Z</time>
      </trkpt>
      <trkpt lat="43.54582" lon="1.48002">
        <ele>216.459</ele>
        <time>2020-04-06T15:18:30Z</time>
      </trkpt>
      <trkpt lat="43.54576" lon="1.48003">
        <ele>216.392</ele>
        <time>2020-04-06T15:18:36Z</time>
      </trkpt>
      <trkpt lat="43.5457" lon="1.48005">
        <ele>216.326</ele>
        <time>2020-04-06T15:18:42Z</time>
      </trkpt>
      <trkpt lat="43.54565" lon="1.48008">
        <ele>216.26</ele>
        <time>2020-04-06T15:18:48Z</time>
      </trkpt>
      <trkpt lat="43.54559" lon="1.4801">
        <ele>216.203</ele>
        <time>2020-04-06T15:18:53Z</time>
      </trkpt>
      <trkpt lat="43.54552" lon="1.48011">
        <ele>216.146</ele>
        <time>2020-04-06T15:18:58Z</time>
      </trkpt>
      <trkpt lat="43.54545" lon="1.48011">
        <ele>216.08</ele>
        <time>2020-04-06T15:19:04Z</time>
      </trkpt>
      <trkpt lat="43.54543" lon="1.48012">
        <ele>216.05</ele>
        <time>2020-04-06T15:19:09Z</time>
      </trkpt>
      <trkpt lat="43.54537" lon="1.48013">
        <ele>215.989</ele>
        <time>2020-04-06T15:19:15Z</time>
      </trkpt>
      <trkpt lat="43.54533" lon="1.48017">
        <ele>215.933</ele>
        <time>2020-04-06T15:19:20Z</time>
      </trkpt>
      <trkpt lat="43.54528" lon="1.4802">
        <ele>215.874</ele>
        <time>2020-04-06T15:19:25Z</time>
      </trkpt>
      <trkpt lat="43.54522" lon="1.48022">
        <ele>215.798</ele>
        <time>2020-04-06T15:19:31Z</time>
      </trkpt>
      <trkpt lat="43.54518" lon="1.48024">
        <ele>215.734</ele>
        <time>2020-04-06T15:19:37Z</time>
      </trkpt>
      <trkpt lat="43.54511" lon="1.48025">
        <ele>215.671</ele>
        <time>2020-04-06T15:19:42Z</time>
      </trkpt>
      <trkpt lat="43.54503" lon="1.48028">
        <ele>215.606</ele>
        <time>2020-04-06T15:19:48Z</time>
      </trkpt>
      <trkpt lat="43.54497" lon="1.48029">
        <ele>215.555</ele>
        <time>2020-04-06T15:19:53Z</time>
      </trkpt>
      <trkpt lat="43.54493" lon="1.4803">
        <ele>215.505</ele>
        <time>2020-04-06T15:19:58Z</time>
      </trkpt>
      <trkpt lat="43.54486" lon="1.48031">
        <ele>215.441</ele>
        <time>2020-04-06T15:20:04Z</time>
      </trkpt>
      <trkpt lat="43.5448" lon="1.48033">
        <ele>215.377</ele>
        <time>2020-04-06T15:20:10Z</time>
      </trkpt>
      <trkpt lat="43.54475" lon="1.48035">
        <ele>215.323</ele>
        <time>2020-04-06T15:20:15Z</time>
      </trkpt>
      <trkpt lat="43.5447" lon="1.48038">
        <ele>215.269</ele>
        <time>2020-04-06T15:20:20Z</time>
      </trkpt>
      <trkpt lat="43.54464" lon="1.48041">
        <ele>215.204</ele>
        <time>2020-04-06T15:20:26Z</time>
      </trkpt>
      <trkpt lat="43.54458" lon="1.48043">
        <ele>215.15</ele>
        <time>2020-04-06T15:20:31Z</time>
      </trkpt>
      <trkpt lat="43.54452" lon="1.48045">
        <ele>215.099</ele>
        <time>2020-04-06T15:20:36Z</time>
      </trkpt>
      <trkpt lat="43.54445" lon="1.48048">
        <ele>215.038</ele>
        <time>2020-04-06T15:20:42Z</time>
      </trkpt>
      <trkpt lat="43.54441" lon="1.4805">
        <ele>214.988</ele>
        <time>2020-04-06T15:20:47Z</time>
      </trkpt>
      <trkpt lat="43.54436" lon="1.48052">
        <ele>214.939</ele>
        <time>2020-04-06T15:20:52Z</time>
      </trkpt>
      <trkpt lat="43.54433" lon="1.48055">
        <ele>214.89</ele>
        <time>2020-04-06T15:20:57Z</time>
      </trkpt>
      <trkpt lat="43.54428" lon="1.48057">
        <ele>214.829</ele>
        <time>2020-04-06T15:21:03Z</time>
      </trkpt>
      <trkpt lat="43.54422" lon="1.48059">
        <ele>214.769</ele>
        <time>2020-04-06T15:21:08Z</time>
      </trkpt>
      <trkpt lat="43.54416" lon="1.48061">
        <ele>214.699</ele>
        <time>2020-04-06T15:21:14Z</time>
      </trkpt>
      <trkpt lat="43.5441" lon="1.48063">
        <ele>214.642</ele>
        <time>2020-04-06T15:21:19Z</time>
      </trkpt>
      <trkpt lat="43.54404" lon="1.48065">
        <ele>214.584</ele>
        <time>2020-04-06T15:21:24Z</time>
      </trkpt>
      <trkpt lat="43.54399" lon="1.48067">
        <ele>214.536</ele>
        <time>2020-04-06T15:21:30Z</time>
      </trkpt>
      <trkpt lat="43.54396" lon="1.48067">
        <ele>214.499</ele>
        <time>2020-04-06T15:21:36Z</time>
      </trkpt>
      <trkpt lat="43.54395" lon="1.48069">
        <ele>214.478</ele>
        <time>2020-04-06T15:21:41Z</time>
      </trkpt>
      <trkpt lat="43.54391" lon="1.48071">
        <ele>214.445</ele>
        <time>2020-04-06T15:21:47Z</time>
      </trkpt>
      <trkpt lat="43.54386" lon="1.48071">
        <ele>214.41</ele>
        <time>2020-04-06T15:21:52Z</time>
      </trkpt>
      <trkpt lat="43.54382" lon="1.48073">
        <ele>214.374</ele>
        <time>2020-04-06T15:21:57Z</time>
      </trkpt>
      <trkpt lat="43.54377" lon="1.48074">
        <ele>214.337</ele>
        <time>2020-04-06T15:22:02Z</time>
      </trkpt>
      <trkpt lat="43.5437" lon="1.48077">
        <ele>214.293</ele>
        <time>2020-04-06T15:22:08Z</time>
      </trkpt>
      <trkpt lat="43.54364" lon="1.48078">
        <ele>214.253</ele>
        <time>2020-04-06T15:22:14Z</time>
      </trkpt>
      <trkpt lat="43.54357" lon="1.48081">
        <ele>214.21</ele>
        <time>2020-04-06T15:22:20Z</time>
      </trkpt>
      <trkpt lat="43.54352" lon="1.48083">
        <ele>214.174</ele>
        <time>2020-04-06T15:22:25Z</time>
      </trkpt>
      <trkpt lat="43.54347" lon="1.48083">
        <ele>214.138</ele>
        <time>2020-04-06T15:22:30Z</time>
      </trkpt>
      <trkpt lat="43.54343" lon="1.48076">
        <ele>214.099</ele>
        <time>2020-04-06T15:22:36Z</time>
      </trkpt>
      <trkpt lat="43.54341" lon="1.48071">
        <ele>214.068</ele>
        <time>2020-04-06T15:22:41Z</time>
      </trkpt>
      <trkpt lat="43.54335" lon="1.48064">
        <ele>214.041</ele>
        <time>2020-04-06T15:22:47Z</time>
      </trkpt>
      <trkpt lat="43.54331" lon="1.48057">
        <ele>214.03</ele>
        <time>2020-04-06T15:22:52Z</time>
      </trkpt>
      <trkpt lat="43.54329" lon="1.4805">
        <ele>214.024</ele>
        <time>2020-04-06T15:22:57Z</time>
      </trkpt>
      <trkpt lat="43.54325" lon="1.48043">
        <ele>214.021</ele>
        <time>2020-04-06T15:23:03Z</time>
      </trkpt>
      <trkpt lat="43.54322" lon="1.48033">
        <ele>214.031</ele>
        <time>2020-04-06T15:23:09Z</time>
      </trkpt>
      <trkpt lat="43.54319" lon="1.48026">
        <ele>214.042</ele>
        <time>2020-04-06T15:23:14Z</time>
      </trkpt>
      <trkpt lat="43.54316" lon="1.48022">
        <ele>214.06</ele>
        <time>2020-04-06T15:23:20Z</time>
      </trkpt>
      <trkpt lat="43.54312" lon="1.48018">
        <ele>214.082</ele>
        <time>2020-04-06T15:23:26Z</time>
      </trkpt>
      <trkpt lat="43.54308" lon="1.48008">
        <ele>214.101</ele>
        <time>2020-04-06T15:23:32Z</time>
      </trkpt>
      <trkpt lat="43.54305" lon="1.48001">
        <ele>214.112</ele>
        <time>2020-04-06T15:23:37Z</time>
      </trkpt>
      <trkpt lat="43.54302" lon="1.47992">
        <ele>214.121</ele>
        <time>2020-04-06T15:23:43Z</time>
      </trkpt>
      <trkpt lat="43.54299" lon="1.47985">
        <ele>214.134</ele>
        <time>2020-04-06T15:23:48Z</time>
      </trkpt>
      <trkpt lat="43.54297" lon="1.47978">
        <ele>214.159</ele>
        <time>2020-04-06T15:23:53Z</time>
      </trkpt>
      <trkpt lat="43.54294" lon="1.47971">
        <ele>214.199</ele>
        <time>2020-04-06T15:23:58Z</time>
      </trkpt>
      <trkpt lat="43.5429" lon="1.47963">
        <ele>214.265</ele>
        <time>2020-04-06T15:24:04Z</time>
      </trkpt>
      <trkpt lat="43.54286" lon="1.47956">
        <ele>214.335</ele>
        <time>2020-04-06T15:24:09Z</time>
      </trkpt>
      <trkpt lat="43.54283" lon="1.47949">
        <ele>214.437</ele>
        <time>2020-04-06T15:24:15Z</time>
      </trkpt>
      <trkpt lat="43.54278" lon="1.47946">
        <ele>214.55</ele>
        <time>2020-04-06T15:24:21Z</time>
      </trkpt>
      <trkpt lat="43.54273" lon="1.47944">
        <ele>214.653</ele>
        <time>2020-04-06T15:24:26Z</time>
      </trkpt>
      <trkpt lat="43.54269" lon="1.47946">
        <ele>214.77</ele>
        <time>2020-04-06T15:24:32Z</time>
      </trkpt>
      <trkpt lat="43.54262" lon="1.47949">
        <ele>214.872</ele>
        <time>2020-04-06T15:24:38Z</time>
      </trkpt>
      <trkpt lat="43.54258" lon="1.47947">
        <ele>214.965</ele>
        <time>2020-04-06T15:24:44Z</time>
      </trkpt>
      <trkpt lat="43.54254" lon="1.47946">
        <ele>215.039</ele>
        <time>2020-04-06T15:24:49Z</time>
      </trkpt>
      <trkpt lat="43.54248" lon="1.47947">
        <ele>215.105</ele>
        <time>2020-04-06T15:24:54Z</time>
      </trkpt>
      <trkpt lat="43.54242" lon="1.47949">
        <ele>215.178</ele>
        <time>2020-04-06T15:25:00Z</time>
      </trkpt>
      <trkpt lat="43.54237" lon="1.47953">
        <ele>215.231</ele>
        <time>2020-04-06T15:25:05Z</time>
      </trkpt>
      <trkpt lat="43.54234" lon="1.47964">
        <ele>215.291</ele>
        <time>2020-04-06T15:25:11Z</time>
      </trkpt>
      <trkpt lat="43.54231" lon="1.47969">
        <ele>215.341</ele>
        <time>2020-04-06T15:25:16Z</time>
      </trkpt>
      <trkpt lat="43.54229" lon="1.47979">
        <ele>215.396</ele>
        <time>2020-04-06T15:25:22Z</time>
      </trkpt>
      <trkpt lat="43.54227" lon="1.47987">
        <ele>215.446</ele>
        <time>2020-04-06T15:25:28Z</time>
      </trkpt>
      <trkpt lat="43.54225" lon="1.47995">
        <ele>215.494</ele>
        <time>2020-04-06T15:25:34Z</time>
      </trkpt>
      <trkpt lat="43.54223" lon="1.48002">
        <ele>215.536</ele>
        <time>2020-04-06T15:25:39Z</time>
      </trkpt>
      <trkpt lat="43.54222" lon="1.4801">
        <ele>215.586</ele>
        <time>2020-04-06T15:25:45Z</time>
      </trkpt>
      <trkpt lat="43.54226" lon="1.48018">
        <ele>215.631</ele>
        <time>2020-04-06T15:25:50Z</time>
      </trkpt>
      <trkpt lat="43.5423" lon="1.48024">
        <ele>215.687</ele>
        <time>2020-04-06T15:25:56Z</time>
      </trkpt>
      <trkpt lat="43.54233" lon="1.48034">
        <ele>215.748</ele>
        <time>2020-04-06T15:26:02Z</time>
      </trkpt>
      <trkpt lat="43.54235" lon="1.48044">
        <ele>215.814</ele>
        <time>2020-04-06T15:26:08Z</time>
      </trkpt>
      <trkpt lat="43.54236" lon="1.48048">
        <ele>215.868</ele>
        <time>2020-04-06T15:26:13Z</time>
      </trkpt>
      <trkpt lat="43.54239" lon="1.48055">
        <ele>215.929</ele>
        <time>2020-04-06T15:26:19Z</time>
      </trkpt>
      <trkpt lat="43.54241" lon="1.48059">
        <ele>215.975</ele>
        <time>2020-04-06T15:26:24Z</time>
      </trkpt>
      <trkpt lat="43.54243" lon="1.48064">
        <ele>216.025</ele>
        <time>2020-04-06T15:26:30Z</time>
      </trkpt>
      <trkpt lat="43.54242" lon="1.48065">
        <ele>216.049</ele>
        <time>2020-04-06T15:26:35Z</time>
      </trkpt>
      <trkpt lat="43.54238" lon="1.48069">
        <ele>216.074</ele>
        <time>2020-04-06T15:26:41Z</time>
      </trkpt>
      <trkpt lat="43.54229" lon="1.48076">
        <ele>216.124</ele>
        <time>2020-04-06T15:26:47Z</time>
      </trkpt>
      <trkpt lat="43.54224" lon="1.4808">
        <ele>216.174</ele>
        <time>2020-04-06T15:26:53Z</time>
      </trkpt>
      <trkpt lat="43.54219" lon="1.4809">
        <ele>216.226</ele>
        <time>2020-04-06T15:26:58Z</time>
      </trkpt>
      <trkpt lat="43.54217" lon="1.48093">
        <ele>216.261</ele>
        <time>2020-04-06T15:27:03Z</time>
      </trkpt>
      <trkpt lat="43.54218" lon="1.48098">
        <ele>216.302</ele>
        <time>2020-04-06T15:27:08Z</time>
      </trkpt>
      <trkpt lat="43.5422" lon="1.48108">
        <ele>216.352</ele>
        <time>2020-04-06T15:27:14Z</time>
      </trkpt>
      <trkpt lat="43.5422" lon="1.48118">
        <ele>216.385</ele>
        <time>2020-04-06T15:27:19Z</time>
      </trkpt>
      <trkpt lat="43.54218" lon="1.48127">
        <ele>216.421</ele>
        <time>2020-04-06T15:27:25Z</time>
      </trkpt>
      <trkpt lat="43.54211" lon="1.48128">
        <ele>216.447</ele>
        <time>2020-04-06T15:27:31Z</time>
      </trkpt>
      <trkpt lat="43.54204" lon="1.48131">
        <ele>216.468</ele>
        <time>2020-04-06T15:27:37Z</time>
      </trkpt>
      <trkpt lat="43.54199" lon="1.48133">
        <ele>216.48</ele>
        <time>2020-04-06T15:27:42Z</time>
      </trkpt>
      <trkpt lat="43.54194" lon="1.48134">
        <ele>216.489</ele>
        <time>2020-04-06T15:27:48Z</time>
      </trkpt>
      <trkpt lat="43.5419" lon="1.48135">
        <ele>216.49</ele>
        <time>2020-04-06T15:27:54Z</time>
      </trkpt>
      <trkpt lat="43.54185" lon="1.48138">
        <ele>216.481</ele>
        <time>2020-04-06T15:28:00Z</time>
      </trkpt>
      <trkpt lat="43.54181" lon="1.48139">
        <ele>216.464</ele>
        <time>2020-04-06T15:28:06Z</time>
      </trkpt>
      <trkpt lat="43.54176" lon="1.48139">
        <ele>216.448</ele>
        <time>2020-04-06T15:28:11Z</time>
      </trkpt>
      <trkpt lat="43.54169" lon="1.48141">
        <ele>216.426</ele>
        <time>2020-04-06T15:28:17Z</time>
      </trkpt>
      <trkpt lat="43.54164" lon="1.48142">
        <ele>216.406</ele>
        <time>2020-04-06T15:28:22Z</time>
      </trkpt>
      <trkpt lat="43.54157" lon="1.48142">
        <ele>216.384</ele>
        <time>2020-04-06T15:28:28Z</time>
      </trkpt>
      <trkpt lat="43.54153" lon="1.48141">
        <ele>216.368</ele>
        <time>2020-04-06T15:28:33Z</time>
      </trkpt>
      <trkpt lat="43.54148" lon="1.48138">
        <ele>216.351</ele>
        <time>2020-04-06T15:28:39Z</time>
      </trkpt>
      <trkpt lat="43.54145" lon="1.48133">
        <ele>216.345</ele>
        <time>2020-04-06T15:28:44Z</time>
      </trkpt>
      <trkpt lat="43.54142" lon="1.48128">
        <ele>216.344</ele>
        <time>2020-04-06T15:28:49Z</time>
      </trkpt>
      <trkpt lat="43.54137" lon="1.48121">
        <ele>216.343</ele>
        <time>2020-04-06T15:28:55Z</time>
      </trkpt>
      <trkpt lat="43.54134" lon="1.48117">
        <ele>216.342</ele>
        <time>2020-04-06T15:29:01Z</time>
      </trkpt>
      <trkpt lat="43.54134" lon="1.48119">
        <ele>216.345</ele>
        <time>2020-04-06T15:29:07Z</time>
      </trkpt>
      <trkpt lat="43.54136" lon="1.48124">
        <ele>216.345</ele>
        <time>2020-04-06T15:29:12Z</time>
      </trkpt>
      <trkpt lat="43.54139" lon="1.48131">
        <ele>216.345</ele>
        <time>2020-04-06T15:29:18Z</time>
      </trkpt>
      <trkpt lat="43.54141" lon="1.48138">
        <ele>216.345</ele>
        <time>2020-04-06T15:29:24Z</time>
      </trkpt>
      <trkpt lat="43.54143" lon="1.48146">
        <ele>216.345</ele>
        <time>2020-04-06T15:29:29Z</time>
      </trkpt>
      <trkpt lat="43.54144" lon="1.48149">
        <ele>216.351</ele>
        <time>2020-04-06T15:29:34Z</time>
      </trkpt>
      <trkpt lat="43.54142" lon="1.48152">
        <ele>216.367</ele>
        <time>2020-04-06T15:29:40Z</time>
      </trkpt>
      <trkpt lat="43.54138" lon="1.48153">
        <ele>216.375</ele>
        <time>2020-04-06T15:29:45Z</time>
      </trkpt>
      <trkpt lat="43.54131" lon="1.48155">
        <ele>216.383</ele>
        <time>2020-04-06T15:29:50Z</time>
      </trkpt>
      <trkpt lat="43.54123" lon="1.48155">
        <ele>216.395</ele>
        <time>2020-04-06T15:29:56Z</time>
      </trkpt>
      <trkpt lat="43.54117" lon="1.48155">
        <ele>216.405</ele>
        <time>2020-04-06T15:30:02Z</time>
      </trkpt>
      <trkpt lat="43.54112" lon="1.48155">
        <ele>216.413</ele>
        <time>2020-04-06T15:30:07Z</time>
      </trkpt>
      <trkpt lat="43.54106" lon="1.48155">
        <ele>216.421</ele>
        <time>2020-04-06T15:30:13Z</time>
      </trkpt>
      <trkpt lat="43.541" lon="1.48154">
        <ele>216.428</ele>
        <time>2020-04-06T15:30:19Z</time>
      </trkpt>
      <trkpt lat="43.54096" lon="1.48155">
        <ele>216.433</ele>
        <time>2020-04-06T15:30:24Z</time>
      </trkpt>
      <trkpt lat="43.54094" lon="1.48155">
        <ele>216.44</ele>
        <time>2020-04-06T15:30:30Z</time>
      </trkpt>
      <trkpt lat="43.54092" lon="1.48157">
        <ele>216.461</ele>
        <time>2020-04-06T15:30:35Z</time>
      </trkpt>
      <trkpt lat="43.54092" lon="1.48159">
        <ele>216.487</ele>
        <time>2020-04-06T15:30:41Z</time>
      </trkpt>
      <trkpt lat="43.54094" lon="1.48167">
        <ele>216.52</ele>
        <time>2020-04-06T15:30:47Z</time>
      </trkpt>
      <trkpt lat="43.54094" lon="1.48177">
        <ele>216.547</ele>
        <time>2020-04-06T15:30:53Z</time>
      </trkpt>
      <trkpt lat="43.54094" lon="1.48179">
        <ele>216.573</ele>
        <time>2020-04-06T15:30:58Z</time>
      </trkpt>
      <trkpt lat="43.54096" lon="1.48184">
        <ele>216.617</ele>
        <time>2020-04-06T15:31:04Z</time>
      </trkpt>
      <trkpt lat="43.54098" lon="1.48185">
        <ele>216.65</ele>
        <time>2020-04-06T15:31:09Z</time>
      </trkpt>
      <trkpt lat="43.54101" lon="1.4819">
        <ele>216.705</ele>
        <time>2020-04-06T15:31:15Z</time>
      </trkpt>
      <trkpt lat="43.54102" lon="1.48192">
        <ele>216.728</ele>
        <time>2020-04-06T15:31:21Z</time>
      </trkpt>
      <trkpt lat="43.54106" lon="1.48196">
        <ele>216.777</ele>
        <time>2020-04-06T15:31:26Z</time>
      </trkpt>
      <trkpt lat="43.54104" lon="1.48202">
        <ele>216.789</ele>
        <time>2020-04-06T15:31:32Z</time>
      </trkpt>
      <trkpt lat="43.54104" lon="1.48202">
        <ele>216.792</ele>
        <time>2020-04-06T15:31:37Z</time>
      </trkpt>
      <trkpt lat="43.54105" lon="1.48203">
        <ele>216.797</ele>
        <time>2020-04-06T15:31:43Z</time>
      </trkpt>
      <trkpt lat="43.54106" lon="1.48209">
        <ele>216.83</ele>
        <time>2020-04-06T15:31:48Z</time>
      </trkpt>
      <trkpt lat="43.54108" lon="1.48218">
        <ele>216.873</ele>
        <time>2020-04-06T15:31:54Z</time>
      </trkpt>
      <trkpt lat="43.54112" lon="1.48226">
        <ele>216.913</ele>
        <time>2020-04-06T15:32:00Z</time>
      </trkpt>
      <trkpt lat="43.54113" lon="1.48235">
        <ele>216.952</ele>
        <time>2020-04-06T15:32:06Z</time>
      </trkpt>
      <trkpt lat="43.54111" lon="1.48243">
        <ele>216.987</ele>
        <time>2020-04-06T15:32:12Z</time>
      </trkpt>
      <trkpt lat="43.54109" lon="1.4825">
        <ele>217.016</ele>
        <time>2020-04-06T15:32:18Z</time>
      </trkpt>
      <trkpt lat="43.54104" lon="1.48257">
        <ele>217.043</ele>
        <time>2020-04-06T15:32:24Z</time>
      </trkpt>
      <trkpt lat="43.54101" lon="1.48263">
        <ele>217.068</ele>
        <time>2020-04-06T15:32:30Z</time>
      </trkpt>
      <trkpt lat="43.54098" lon="1.48267">
        <ele>217.089</ele>
        <time>2020-04-06T15:32:35Z</time>
      </trkpt>
      <trkpt lat="43.54096" lon="1.4827">
        <ele>217.106</ele>
        <time>2020-04-06T15:32:40Z</time>
      </trkpt>
      <trkpt lat="43.54097" lon="1.48276">
        <ele>217.129</ele>
        <time>2020-04-06T15:32:46Z</time>
      </trkpt>
      <trkpt lat="43.54101" lon="1.48286">
        <ele>217.156</ele>
        <time>2020-04-06T15:32:52Z</time>
      </trkpt>
      <trkpt lat="43.54099" lon="1.48291">
        <ele>217.181</ele>
        <time>2020-04-06T15:32:58Z</time>
      </trkpt>
      <trkpt lat="43.54096" lon="1.48297">
        <ele>217.203</ele>
        <time>2020-04-06T15:33:04Z</time>
      </trkpt>
      <trkpt lat="43.54094" lon="1.48305">
        <ele>217.22</ele>
        <time>2020-04-06T15:33:10Z</time>
      </trkpt>
      <trkpt lat="43.54093" lon="1.48303">
        <ele>217.226</ele>
        <time>2020-04-06T15:33:15Z</time>
      </trkpt>
      <trkpt lat="43.54093" lon="1.48305">
        <ele>217.227</ele>
        <time>2020-04-06T15:33:20Z</time>
      </trkpt>
      <trkpt lat="43.54095" lon="1.48313">
        <ele>217.222</ele>
        <time>2020-04-06T15:33:26Z</time>
      </trkpt>
      <trkpt lat="43.54098" lon="1.48323">
        <ele>217.205</ele>
        <time>2020-04-06T15:33:32Z</time>
      </trkpt>
      <trkpt lat="43.54102" lon="1.48333">
        <ele>217.18</ele>
        <time>2020-04-06T15:33:38Z</time>
      </trkpt>
      <trkpt lat="43.54107" lon="1.48337">
        <ele>217.16</ele>
        <time>2020-04-06T15:33:43Z</time>
      </trkpt>
      <trkpt lat="43.5411" lon="1.48339">
        <ele>217.134</ele>
        <time>2020-04-06T15:33:49Z</time>
      </trkpt>
      <trkpt lat="43.54111" lon="1.48345">
        <ele>217.105</ele>
        <time>2020-04-06T15:33:55Z</time>
      </trkpt>
      <trkpt lat="43.54113" lon="1.48355">
        <ele>217.075</ele>
        <time>2020-04-06T15:34:01Z</time>
      </trkpt>
      <trkpt lat="43.54112" lon="1.48358">
        <ele>217.044</ele>
        <time>2020-04-06T15:34:07Z</time>
      </trkpt>
      <trkpt lat="43.54113" lon="1.48371">
        <ele>217.015</ele>
        <time>2020-04-06T15:34:13Z</time>
      </trkpt>
      <trkpt lat="43.54112" lon="1.48376">
        <ele>216.988</ele>
        <time>2020-04-06T15:34:19Z</time>
      </trkpt>
      <trkpt lat="43.54113" lon="1.48377">
        <ele>216.971</ele>
        <time>2020-04-06T15:34:25Z</time>
      </trkpt>
      <trkpt lat="43.54115" lon="1.48381">
        <ele>216.954</ele>
        <time>2020-04-06T15:34:31Z</time>
      </trkpt>
      <trkpt lat="43.54117" lon="1.48387">
        <ele>216.942</ele>
        <time>2020-04-06T15:34:36Z</time>
      </trkpt>
      <trkpt lat="43.5412" lon="1.48395">
        <ele>216.929</ele>
        <time>2020-04-06T15:34:42Z</time>
      </trkpt>
      <trkpt lat="43.54124" lon="1.48403">
        <ele>216.917</ele>
        <time>2020-04-06T15:34:48Z</time>
      </trkpt>
      <trkpt lat="43.54126" lon="1.4841">
        <ele>216.914</ele>
        <time>2020-04-06T15:34:53Z</time>
      </trkpt>
      <trkpt lat="43.54124" lon="1.48415">
        <ele>216.913</ele>
        <time>2020-04-06T15:34:58Z</time>
      </trkpt>
      <trkpt lat="43.54125" lon="1.48421">
        <ele>216.902</ele>
        <time>2020-04-06T15:35:04Z</time>
      </trkpt>
      <trkpt lat="43.54127" lon="1.48434">
        <ele>216.88</ele>
        <time>2020-04-06T15:35:10Z</time>
      </trkpt>
      <trkpt lat="43.54126" lon="1.48448">
        <ele>216.848</ele>
        <time>2020-04-06T15:35:16Z</time>
      </trkpt>
      <trkpt lat="43.54124" lon="1.48463">
        <ele>216.806</ele>
        <time>2020-04-06T15:35:22Z</time>
      </trkpt>
      <trkpt lat="43.5412" lon="1.48475">
        <ele>216.766</ele>
        <time>2020-04-06T15:35:27Z</time>
      </trkpt>
      <trkpt lat="43.54117" lon="1.4849">
        <ele>216.728</ele>
        <time>2020-04-06T15:35:33Z</time>
      </trkpt>
      <trkpt lat="43.54116" lon="1.48498">
        <ele>216.709</ele>
        <time>2020-04-06T15:35:38Z</time>
      </trkpt>
      <trkpt lat="43.54114" lon="1.48505">
        <ele>216.688</ele>
        <time>2020-04-06T15:35:44Z</time>
      </trkpt>
      <trkpt lat="43.54113" lon="1.48513">
        <ele>216.676</ele>
        <time>2020-04-06T15:35:49Z</time>
      </trkpt>
      <trkpt lat="43.54111" lon="1.48521">
        <ele>216.658</ele>
        <time>2020-04-06T15:35:55Z</time>
      </trkpt>
      <trkpt lat="43.5411" lon="1.4853">
        <ele>216.635</ele>
        <time>2020-04-06T15:36:01Z</time>
      </trkpt>
      <trkpt lat="43.5411" lon="1.48534">
        <ele>216.612</ele>
        <time>2020-04-06T15:36:06Z</time>
      </trkpt>
      <trkpt lat="43.54109" lon="1.48543">
        <ele>216.571</ele>
        <time>2020-04-06T15:36:12Z</time>
      </trkpt>
      <trkpt lat="43.54108" lon="1.48553">
        <ele>216.535</ele>
        <time>2020-04-06T15:36:17Z</time>
      </trkpt>
      <trkpt lat="43.54105" lon="1.4856">
        <ele>216.494</ele>
        <time>2020-04-06T15:36:22Z</time>
      </trkpt>
      <trkpt lat="43.54105" lon="1.48567">
        <ele>216.445</ele>
        <time>2020-04-06T15:36:27Z</time>
      </trkpt>
      <trkpt lat="43.54104" lon="1.48574">
        <ele>216.37</ele>
        <time>2020-04-06T15:36:33Z</time>
      </trkpt>
      <trkpt lat="43.54103" lon="1.48581">
        <ele>216.295</ele>
        <time>2020-04-06T15:36:38Z</time>
      </trkpt>
      <trkpt lat="43.541" lon="1.48593">
        <ele>216.22</ele>
        <time>2020-04-06T15:36:43Z</time>
      </trkpt>
      <trkpt lat="43.54099" lon="1.48603">
        <ele>216.128</ele>
        <time>2020-04-06T15:36:49Z</time>
      </trkpt>
      <trkpt lat="43.54098" lon="1.48609">
        <ele>216.055</ele>
        <time>2020-04-06T15:36:54Z</time>
      </trkpt>
      <trkpt lat="43.54096" lon="1.48618">
        <ele>215.974</ele>
        <time>2020-04-06T15:37:00Z</time>
      </trkpt>
      <trkpt lat="43.54097" lon="1.48624">
        <ele>215.893</ele>
        <time>2020-04-06T15:37:06Z</time>
      </trkpt>
      <trkpt lat="43.54099" lon="1.48631">
        <ele>215.824</ele>
        <time>2020-04-06T15:37:11Z</time>
      </trkpt>
      <trkpt lat="43.54103" lon="1.48637">
        <ele>215.745</ele>
        <time>2020-04-06T15:37:17Z</time>
      </trkpt>
      <trkpt lat="43.54105" lon="1.48641">
        <ele>215.685</ele>
        <time>2020-04-06T15:37:22Z</time>
      </trkpt>
      <trkpt lat="43.54106" lon="1.48657">
        <ele>215.618</ele>
        <time>2020-04-06T15:37:28Z</time>
      </trkpt>
      <trkpt lat="43.54104" lon="1.48667">
        <ele>215.589</ele>
        <time>2020-04-06T15:37:33Z</time>
      </trkpt>
      <trkpt lat="43.54104" lon="1.48669">
        <ele>215.567</ele>
        <time>2020-04-06T15:37:38Z</time>
      </trkpt>
      <trkpt lat="43.54104" lon="1.48681">
        <ele>215.528</ele>
        <time>2020-04-06T15:37:44Z</time>
      </trkpt>
      <trkpt lat="43.54105" lon="1.48688">
        <ele>215.491</ele>
        <time>2020-04-06T15:37:50Z</time>
      </trkpt>
      <trkpt lat="43.54105" lon="1.48697">
        <ele>215.464</ele>
        <time>2020-04-06T15:37:56Z</time>
      </trkpt>
      <trkpt lat="43.54106" lon="1.487">
        <ele>215.441</ele>
        <time>2020-04-06T15:38:02Z</time>
      </trkpt>
      <trkpt lat="43.54108" lon="1.48707">
        <ele>215.415</ele>
        <time>2020-04-06T15:38:07Z</time>
      </trkpt>
      <trkpt lat="43.54109" lon="1.48721">
        <ele>215.396</ele>
        <time>2020-04-06T15:38:13Z</time>
      </trkpt>
      <trkpt lat="43.54109" lon="1.48728">
        <ele>215.391</ele>
        <time>2020-04-06T15:38:19Z</time>
      </trkpt>
      <trkpt lat="43.54108" lon="1.48736">
        <ele>215.394</ele>
        <time>2020-04-06T15:38:25Z</time>
      </trkpt>
      <trkpt lat="43.54107" lon="1.48751">
        <ele>215.4</ele>
        <time>2020-04-06T15:38:31Z</time>
      </trkpt>
      <trkpt lat="43.54108" lon="1.48754">
        <ele>215.409</ele>
        <time>2020-04-06T15:38:36Z</time>
      </trkpt>
      <trkpt lat="43.54109" lon="1.48759">
        <ele>215.419</ele>
        <time>2020-04-06T15:38:42Z</time>
      </trkpt>
      <trkpt lat="43.54111" lon="1.48761">
        <ele>215.423</ele>
        <time>2020-04-06T15:38:48Z</time>
      </trkpt>
      <trkpt lat="43.5411" lon="1.48779">
        <ele>215.423</ele>
        <time>2020-04-06T15:38:53Z</time>
      </trkpt>
      <trkpt lat="43.54109" lon="1.48794">
        <ele>215.421</ele>
        <time>2020-04-06T15:38:59Z</time>
      </trkpt>
      <trkpt lat="43.54108" lon="1.48799">
        <ele>215.414</ele>
        <time>2020-04-06T15:39:05Z</time>
      </trkpt>
      <trkpt lat="43.54108" lon="1.48809">
        <ele>215.397</ele>
        <time>2020-04-06T15:39:11Z</time>
      </trkpt>
      <trkpt lat="43.5411" lon="1.4882">
        <ele>215.378</ele>
        <time>2020-04-06T15:39:17Z</time>
      </trkpt>
      <trkpt lat="43.5411" lon="1.48825">
        <ele>215.369</ele>
        <time>2020-04-06T15:39:23Z</time>
      </trkpt>
      <trkpt lat="43.54111" lon="1.48831">
        <ele>215.36</ele>
        <time>2020-04-06T15:39:28Z</time>
      </trkpt>
      <trkpt lat="43.54112" lon="1.48838">
        <ele>215.353</ele>
        <time>2020-04-06T15:39:34Z</time>
      </trkpt>
      <trkpt lat="43.54111" lon="1.48851">
        <ele>215.329</ele>
        <time>2020-04-06T15:39:39Z</time>
      </trkpt>
      <trkpt lat="43.54111" lon="1.4886">
        <ele>215.298</ele>
        <time>2020-04-06T15:39:44Z</time>
      </trkpt>
      <trkpt lat="43.54111" lon="1.48872">
        <ele>215.257</ele>
        <time>2020-04-06T15:39:50Z</time>
      </trkpt>
      <trkpt lat="43.5411" lon="1.48881">
        <ele>215.225</ele>
        <time>2020-04-06T15:39:55Z</time>
      </trkpt>
      <trkpt lat="43.54107" lon="1.48892">
        <ele>215.183</ele>
        <time>2020-04-06T15:40:01Z</time>
      </trkpt>
      <trkpt lat="43.54105" lon="1.48901">
        <ele>215.134</ele>
        <time>2020-04-06T15:40:07Z</time>
      </trkpt>
      <trkpt lat="43.54107" lon="1.48908">
        <ele>215.078</ele>
        <time>2020-04-06T15:40:13Z</time>
      </trkpt>
      <trkpt lat="43.54109" lon="1.48914">
        <ele>215.03</ele>
        <time>2020-04-06T15:40:18Z</time>
      </trkpt>
      <trkpt lat="43.54111" lon="1.48921">
        <ele>214.971</ele>
        <time>2020-04-06T15:40:24Z</time>
      </trkpt>
      <trkpt lat="43.54114" lon="1.48928">
        <ele>214.911</ele>
        <time>2020-04-06T15:40:30Z</time>
      </trkpt>
      <trkpt lat="43.54117" lon="1.48934">
        <ele>214.857</ele>
        <time>2020-04-06T15:40:35Z</time>
      </trkpt>
      <trkpt lat="43.54119" lon="1.48942">
        <ele>214.79</ele>
        <time>2020-04-06T15:40:41Z</time>
      </trkpt>
      <trkpt lat="43.5412" lon="1.48947">
        <ele>214.731</ele>
        <time>2020-04-06T15:40:46Z</time>
      </trkpt>
      <trkpt lat="43.54123" lon="1.48955">
        <ele>214.656</ele>
        <time>2020-04-06T15:40:52Z</time>
      </trkpt>
      <trkpt lat="43.54127" lon="1.48963">
        <ele>214.578</ele>
        <time>2020-04-06T15:40:58Z</time>
      </trkpt>
      <trkpt lat="43.54129" lon="1.4897">
        <ele>214.512</ele>
        <time>2020-04-06T15:41:03Z</time>
      </trkpt>
      <trkpt lat="43.54134" lon="1.48978">
        <ele>214.438</ele>
        <time>2020-04-06T15:41:09Z</time>
      </trkpt>
      <trkpt lat="43.54138" lon="1.48985">
        <ele>214.367</ele>
        <time>2020-04-06T15:41:15Z</time>
      </trkpt>
      <trkpt lat="43.54142" lon="1.48991">
        <ele>214.296</ele>
        <time>2020-04-06T15:41:21Z</time>
      </trkpt>
      <trkpt lat="43.54145" lon="1.48998">
        <ele>214.228</ele>
        <time>2020-04-06T15:41:27Z</time>
      </trkpt>
      <trkpt lat="43.54148" lon="1.49004">
        <ele>214.176</ele>
        <time>2020-04-06T15:41:32Z</time>
      </trkpt>
      <trkpt lat="43.54152" lon="1.49012">
        <ele>214.119</ele>
        <time>2020-04-06T15:41:38Z</time>
      </trkpt>
      <trkpt lat="43.54157" lon="1.49017">
        <ele>214.06</ele>
        <time>2020-04-06T15:41:44Z</time>
      </trkpt>
      <trkpt lat="43.54161" lon="1.49021">
        <ele>214.01</ele>
        <time>2020-04-06T15:41:49Z</time>
      </trkpt>
      <trkpt lat="43.54165" lon="1.49025">
        <ele>213.961</ele>
        <time>2020-04-06T15:41:54Z</time>
      </trkpt>
      <trkpt lat="43.54171" lon="1.49031">
        <ele>213.903</ele>
        <time>2020-04-06T15:42:00Z</time>
      </trkpt>
      <trkpt lat="43.54175" lon="1.49036">
        <ele>213.854</ele>
        <time>2020-04-06T15:42:05Z</time>
      </trkpt>
      <trkpt lat="43.54181" lon="1.49041">
        <ele>213.793</ele>
        <time>2020-04-06T15:42:11Z</time>
      </trkpt>
      <trkpt lat="43.54188" lon="1.49044">
        <ele>213.736</ele>
        <time>2020-04-06T15:42:17Z</time>
      </trkpt>
      <trkpt lat="43.54193" lon="1.49047">
        <ele>213.689</ele>
        <time>2020-04-06T15:42:22Z</time>
      </trkpt>
      <trkpt lat="43.54197" lon="1.49053">
        <ele>213.634</ele>
        <time>2020-04-06T15:42:28Z</time>
      </trkpt>
      <trkpt lat="43.54203" lon="1.49057">
        <ele>213.583</ele>
        <time>2020-04-06T15:42:34Z</time>
      </trkpt>
      <trkpt lat="43.54206" lon="1.49059">
        <ele>213.545</ele>
        <time>2020-04-06T15:42:40Z</time>
      </trkpt>
      <trkpt lat="43.54211" lon="1.4906">
        <ele>213.519</ele>
        <time>2020-04-06T15:42:45Z</time>
      </trkpt>
      <trkpt lat="43.54214" lon="1.4906">
        <ele>213.497</ele>
        <time>2020-04-06T15:42:50Z</time>
      </trkpt>
      <trkpt lat="43.54217" lon="1.49061">
        <ele>213.477</ele>
        <time>2020-04-06T15:42:55Z</time>
      </trkpt>
      <trkpt lat="43.54224" lon="1.49055">
        <ele>213.466</ele>
        <time>2020-04-06T15:43:01Z</time>
      </trkpt>
      <trkpt lat="43.5423" lon="1.49057">
        <ele>213.463</ele>
        <time>2020-04-06T15:43:06Z</time>
      </trkpt>
      <trkpt lat="43.54237" lon="1.49056">
        <ele>213.456</ele>
        <time>2020-04-06T15:43:12Z</time>
      </trkpt>
      <trkpt lat="43.54246" lon="1.4905">
        <ele>213.451</ele>
        <time>2020-04-06T15:43:18Z</time>
      </trkpt>
      <trkpt lat="43.54246" lon="1.49045">
        <ele>213.454</ele>
        <time>2020-04-06T15:43:23Z</time>
      </trkpt>
      <trkpt lat="43.54251" lon="1.49043">
        <ele>213.464</ele>
        <time>2020-04-06T15:43:28Z</time>
      </trkpt>
      <trkpt lat="43.54259" lon="1.49043">
        <ele>213.479</ele>
        <time>2020-04-06T15:43:33Z</time>
      </trkpt>
      <trkpt lat="43.54265" lon="1.49039">
        <ele>213.502</ele>
        <time>2020-04-06T15:43:39Z</time>
      </trkpt>
      <trkpt lat="43.54271" lon="1.49038">
        <ele>213.527</ele>
        <time>2020-04-06T15:43:45Z</time>
      </trkpt>
      <trkpt lat="43.54277" lon="1.49034">
        <ele>213.557</ele>
        <time>2020-04-06T15:43:51Z</time>
      </trkpt>
      <trkpt lat="43.5428" lon="1.49031">
        <ele>213.584</ele>
        <time>2020-04-06T15:43:56Z</time>
      </trkpt>
      <trkpt lat="43.54284" lon="1.4903">
        <ele>213.603</ele>
        <time>2020-04-06T15:44:02Z</time>
      </trkpt>
      <trkpt lat="43.54285" lon="1.49029">
        <ele>213.618</ele>
        <time>2020-04-06T15:44:08Z</time>
      </trkpt>
      <trkpt lat="43.54289" lon="1.49029">
        <ele>213.645</ele>
        <time>2020-04-06T15:44:13Z</time>
      </trkpt>
      <trkpt lat="43.54291" lon="1.49026">
        <ele>213.667</ele>
        <time>2020-04-06T15:44:19Z</time>
      </trkpt>
      <trkpt lat="43.54297" lon="1.49022">
        <ele>213.677</ele>
        <time>2020-04-06T15:44:24Z</time>
      </trkpt>
      <trkpt lat="43.54307" lon="1.4902">
        <ele>213.684</ele>
        <time>2020-04-06T15:44:30Z</time>
      </trkpt>
      <trkpt lat="43.54311" lon="1.49018">
        <ele>213.691</ele>
        <time>2020-04-06T15:44:35Z</time>
      </trkpt>
      <trkpt lat="43.54314" lon="1.49017">
        <ele>213.697</ele>
        <time>2020-04-06T15:44:41Z</time>
      </trkpt>
      <trkpt lat="43.54316" lon="1.49018">
        <ele>213.695</ele>
        <time>2020-04-06T15:44:46Z</time>
      </trkpt>
      <trkpt lat="43.54322" lon="1.49015">
        <ele>213.686</ele>
        <time>2020-04-06T15:44:52Z</time>
      </trkpt>
      <trkpt lat="43.54332" lon="1.49017">
        <ele>213.671</ele>
        <time>2020-04-06T15:44:58Z</time>
      </trkpt>
      <trkpt lat="43.54338" lon="1.49015">
        <ele>213.657</ele>
        <time>2020-04-06T15:45:04Z</time>
      </trkpt>
      <trkpt lat="43.54341" lon="1.49016">
        <ele>213.655</ele>
        <time>2020-04-06T15:45:10Z</time>
      </trkpt>
      <trkpt lat="43.54343" lon="1.49014">
        <ele>213.651</ele>
        <time>2020-04-06T15:45:15Z</time>
      </trkpt>
      <trkpt lat="43.54346" lon="1.49013">
        <ele>213.637</ele>
        <time>2020-04-06T15:45:21Z</time>
      </trkpt>
      <trkpt lat="43.54348" lon="1.49011">
        <ele>213.62</ele>
        <time>2020-04-06T15:45:26Z</time>
      </trkpt>
      <trkpt lat="43.54355" lon="1.49007">
        <ele>213.589</ele>
        <time>2020-04-06T15:45:32Z</time>
      </trkpt>
      <trkpt lat="43.5436" lon="1.49003">
        <ele>213.546</ele>
        <time>2020-04-06T15:45:38Z</time>
      </trkpt>
      <trkpt lat="43.54364" lon="1.49001">
        <ele>213.496</ele>
        <time>2020-04-06T15:45:43Z</time>
      </trkpt>
      <trkpt lat="43.54368" lon="1.48998">
        <ele>213.443</ele>
        <time>2020-04-06T15:45:48Z</time>
      </trkpt>
      <trkpt lat="43.54376" lon="1.48998">
        <ele>213.38</ele>
        <time>2020-04-06T15:45:54Z</time>
      </trkpt>
      <trkpt lat="43.54381" lon="1.48997">
        <ele>213.319</ele>
        <time>2020-04-06T15:46:00Z</time>
      </trkpt>
      <trkpt lat="43.54384" lon="1.48995">
        <ele>213.266</ele>
        <time>2020-04-06T15:46:06Z</time>
      </trkpt>
      <trkpt lat="43.5439" lon="1.4899">
        <ele>213.216</ele>
        <time>2020-04-06T15:46:11Z</time>
      </trkpt>
      <trkpt lat="43.54398" lon="1.48985">
        <ele>213.163</ele>
        <time>2020-04-06T15:46:17Z</time>
      </trkpt>
      <trkpt lat="43.54402" lon="1.48983">
        <ele>213.122</ele>
        <time>2020-04-06T15:46:22Z</time>
      </trkpt>
      <trkpt lat="43.54406" lon="1.4898">
        <ele>213.074</ele>
        <time>2020-04-06T15:46:28Z</time>
      </trkpt>
      <trkpt lat="43.54411" lon="1.48975">
        <ele>213.027</ele>
        <time>2020-04-06T15:46:34Z</time>
      </trkpt>
      <trkpt lat="43.54415" lon="1.48966">
        <ele>212.987</ele>
        <time>2020-04-06T15:46:40Z</time>
      </trkpt>
      <trkpt lat="43.54422" lon="1.48965">
        <ele>212.954</ele>
        <time>2020-04-06T15:46:45Z</time>
      </trkpt>
      <trkpt lat="43.54428" lon="1.48961">
        <ele>212.919</ele>
        <time>2020-04-06T15:46:51Z</time>
      </trkpt>
      <trkpt lat="43.54432" lon="1.48956">
        <ele>212.893</ele>
        <time>2020-04-06T15:46:57Z</time>
      </trkpt>
      <trkpt lat="43.54437" lon="1.48951">
        <ele>212.876</ele>
        <time>2020-04-06T15:47:02Z</time>
      </trkpt>
      <trkpt lat="43.5444" lon="1.48947">
        <ele>212.861</ele>
        <time>2020-04-06T15:47:08Z</time>
      </trkpt>
      <trkpt lat="43.54445" lon="1.48943">
        <ele>212.853</ele>
        <time>2020-04-06T15:47:13Z</time>
      </trkpt>
      <trkpt lat="43.54446" lon="1.48943">
        <ele>212.854</ele>
        <time>2020-04-06T15:47:18Z</time>
      </trkpt>
      <trkpt lat="43.54448" lon="1.48939">
        <ele>212.857</ele>
        <time>2020-04-06T15:47:24Z</time>
      </trkpt>
      <trkpt lat="43.54451" lon="1.48935">
        <ele>212.859</ele>
        <time>2020-04-06T15:47:29Z</time>
      </trkpt>
      <trkpt lat="43.54453" lon="1.48932">
        <ele>212.861</ele>
        <time>2020-04-06T15:47:35Z</time>
      </trkpt>
      <trkpt lat="43.5446" lon="1.48924">
        <ele>212.862</ele>
        <time>2020-04-06T15:47:41Z</time>
      </trkpt>
      <trkpt lat="43.54466" lon="1.48917">
        <ele>212.869</ele>
        <time>2020-04-06T15:47:47Z</time>
      </trkpt>
      <trkpt lat="43.54469" lon="1.48912">
        <ele>212.873</ele>
        <time>2020-04-06T15:47:52Z</time>
      </trkpt>
      <trkpt lat="43.54473" lon="1.48907">
        <ele>212.872</ele>
        <time>2020-04-06T15:47:58Z</time>
      </trkpt>
      <trkpt lat="43.54476" lon="1.48901">
        <ele>212.87</ele>
        <time>2020-04-06T15:48:03Z</time>
      </trkpt>
      <trkpt lat="43.54477" lon="1.48896">
        <ele>212.866</ele>
        <time>2020-04-06T15:48:09Z</time>
      </trkpt>
      <trkpt lat="43.54478" lon="1.48889">
        <ele>212.866</ele>
        <time>2020-04-06T15:48:15Z</time>
      </trkpt>
      <trkpt lat="43.54481" lon="1.48878">
        <ele>212.872</ele>
        <time>2020-04-06T15:48:21Z</time>
      </trkpt>
      <trkpt lat="43.54481" lon="1.48877">
        <ele>212.873</ele>
        <time>2020-04-06T15:48:26Z</time>
      </trkpt>
      <trkpt lat="43.54482" lon="1.48872">
        <ele>212.876</ele>
        <time>2020-04-06T15:48:32Z</time>
      </trkpt>
      <trkpt lat="43.54492" lon="1.48868">
        <ele>212.855</ele>
        <time>2020-04-06T15:48:38Z</time>
      </trkpt>
      <trkpt lat="43.54495" lon="1.48863">
        <ele>212.833</ele>
        <time>2020-04-06T15:48:43Z</time>
      </trkpt>
      <trkpt lat="43.54496" lon="1.48858">
        <ele>212.806</ele>
        <time>2020-04-06T15:48:48Z</time>
      </trkpt>
      <trkpt lat="43.54496" lon="1.48854">
        <ele>212.781</ele>
        <time>2020-04-06T15:48:54Z</time>
      </trkpt>
      <trkpt lat="43.54498" lon="1.48846">
        <ele>212.75</ele>
        <time>2020-04-06T15:49:00Z</time>
      </trkpt>
      <trkpt lat="43.54502" lon="1.48826">
        <ele>212.711</ele>
        <time>2020-04-06T15:49:06Z</time>
      </trkpt>
      <trkpt lat="43.54504" lon="1.4882">
        <ele>212.694</ele>
        <time>2020-04-06T15:49:12Z</time>
      </trkpt>
      <trkpt lat="43.54508" lon="1.48811">
        <ele>212.679</ele>
        <time>2020-04-06T15:49:17Z</time>
      </trkpt>
      <trkpt lat="43.5451" lon="1.48809">
        <ele>212.661</ele>
        <time>2020-04-06T15:49:23Z</time>
      </trkpt>
      <trkpt lat="43.54514" lon="1.48803">
        <ele>212.636</ele>
        <time>2020-04-06T15:49:29Z</time>
      </trkpt>
      <trkpt lat="43.54518" lon="1.48794">
        <ele>212.595</ele>
        <time>2020-04-06T15:49:35Z</time>
      </trkpt>
      <trkpt lat="43.54521" lon="1.48787">
        <ele>212.563</ele>
        <time>2020-04-06T15:49:40Z</time>
      </trkpt>
      <trkpt lat="43.54523" lon="1.48777">
        <ele>212.519</ele>
        <time>2020-04-06T15:49:46Z</time>
      </trkpt>
      <trkpt lat="43.54523" lon="1.48772">
        <ele>212.485</ele>
        <time>2020-04-06T15:49:52Z</time>
      </trkpt>
      <trkpt lat="43.54524" lon="1.48766">
        <ele>212.456</ele>
        <time>2020-04-06T15:49:57Z</time>
      </trkpt>
      <trkpt lat="43.54526" lon="1.48759">
        <ele>212.424</ele>
        <time>2020-04-06T15:50:03Z</time>
      </trkpt>
      <trkpt lat="43.54528" lon="1.48752">
        <ele>212.405</ele>
        <time>2020-04-06T15:50:09Z</time>
      </trkpt>
      <trkpt lat="43.54531" lon="1.48742">
        <ele>212.39</ele>
        <time>2020-04-06T15:50:15Z</time>
      </trkpt>
      <trkpt lat="43.54532" lon="1.48741">
        <ele>212.379</ele>
        <time>2020-04-06T15:50:20Z</time>
      </trkpt>
      <trkpt lat="43.54532" lon="1.4874">
        <ele>212.374</ele>
        <time>2020-04-06T15:50:26Z</time>
      </trkpt>
      <trkpt lat="43.54531" lon="1.4874">
        <ele>212.37</ele>
        <time>2020-04-06T15:50:31Z</time>
      </trkpt>
      <trkpt lat="43.54531" lon="1.4874">
        <ele>212.363</ele>
        <time>2020-04-06T15:50:37Z</time>
      </trkpt>
      <trkpt lat="43.54532" lon="1.48737">
        <ele>212.327</ele>
        <time>2020-04-06T15:50:43Z</time>
      </trkpt>
      <trkpt lat="43.54533" lon="1.48736">
        <ele>212.312</ele>
        <time>2020-04-06T15:50:48Z</time>
      </trkpt>
      <trkpt lat="43.54532" lon="1.48736">
        <ele>212.307</ele>
        <time>2020-04-06T15:50:53Z</time>
      </trkpt>
      <trkpt lat="43.54533" lon="1.48735">
        <ele>212.3</ele>
        <time>2020-04-06T15:50:59Z</time>
      </trkpt>
      <trkpt lat="43.54534" lon="1.48735">
        <ele>212.293</ele>
        <time>2020-04-06T15:51:05Z</time>
      </trkpt>
      <trkpt lat="43.54534" lon="1.48735">
        <ele>212.277</ele>
        <time>2020-04-06T15:51:11Z</time>
      </trkpt>
      <trkpt lat="43.54535" lon="1.48734">
        <ele>212.262</ele>
        <time>2020-04-06T15:51:16Z</time>
      </trkpt>
      <trkpt lat="43.54535" lon="1.48733">
        <ele>212.256</ele>
        <time>2020-04-06T15:51:22Z</time>
      </trkpt>
      <trkpt lat="43.54538" lon="1.48731">
        <ele>212.22</ele>
        <time>2020-04-06T15:51:28Z</time>
      </trkpt>
      <trkpt lat="43.54539" lon="1.48728">
        <ele>212.207</ele>
        <time>2020-04-06T15:51:33Z</time>
      </trkpt>
      <trkpt lat="43.5454" lon="1.48726">
        <ele>212.164</ele>
        <time>2020-04-06T15:51:39Z</time>
      </trkpt>
      <trkpt lat="43.54544" lon="1.48721">
        <ele>212.115</ele>
        <time>2020-04-06T15:51:44Z</time>
      </trkpt>
      <trkpt lat="43.54546" lon="1.48716">
        <ele>212.071</ele>
        <time>2020-04-06T15:51:50Z</time>
      </trkpt>
      <trkpt lat="43.54548" lon="1.48712">
        <ele>212.023</ele>
        <time>2020-04-06T15:51:55Z</time>
      </trkpt>
      <trkpt lat="43.54551" lon="1.48702">
        <ele>211.973</ele>
        <time>2020-04-06T15:52:01Z</time>
      </trkpt>
      <trkpt lat="43.54554" lon="1.48694">
        <ele>211.93</ele>
        <time>2020-04-06T15:52:07Z</time>
      </trkpt>
      <trkpt lat="43.54556" lon="1.48688">
        <ele>211.89</ele>
        <time>2020-04-06T15:52:13Z</time>
      </trkpt>
      <trkpt lat="43.54557" lon="1.48684">
        <ele>211.875</ele>
        <time>2020-04-06T15:52:18Z</time>
      </trkpt>
      <trkpt lat="43.54559" lon="1.48676">
        <ele>211.831</ele>
        <time>2020-04-06T15:52:24Z</time>
      </trkpt>
      <trkpt lat="43.54564" lon="1.48662">
        <ele>211.792</ele>
        <time>2020-04-06T15:52:29Z</time>
      </trkpt>
      <trkpt lat="43.54566" lon="1.48658">
        <ele>211.758</ele>
        <time>2020-04-06T15:52:34Z</time>
      </trkpt>
      <trkpt lat="43.54571" lon="1.48652">
        <ele>211.721</ele>
        <time>2020-04-06T15:52:40Z</time>
      </trkpt>
      <trkpt lat="43.54574" lon="1.48644">
        <ele>211.693</ele>
        <time>2020-04-06T15:52:45Z</time>
      </trkpt>
      <trkpt lat="43.54576" lon="1.48638">
        <ele>211.672</ele>
        <time>2020-04-06T15:52:50Z</time>
      </trkpt>
      <trkpt lat="43.54577" lon="1.48637">
        <ele>211.661</ele>
        <time>2020-04-06T15:52:55Z</time>
      </trkpt>
      <trkpt lat="43.54577" lon="1.48636">
        <ele>211.65</ele>
        <time>2020-04-06T15:53:01Z</time>
      </trkpt>
      <trkpt lat="43.54578" lon="1.48633">
        <ele>211.619</ele>
        <time>2020-04-06T15:53:06Z</time>
      </trkpt>
      <trkpt lat="43.5458" lon="1.48623">
        <ele>211.546</ele>
        <time>2020-04-06T15:53:12Z</time>
      </trkpt>
      <trkpt lat="43.54579" lon="1.48615">
        <ele>211.476</ele>
        <time>2020-04-06T15:53:18Z</time>
      </trkpt>
      <trkpt lat="43.54586" lon="1.4861">
        <ele>211.398</ele>
        <time>2020-04-06T15:53:24Z</time>
      </trkpt>
      <trkpt lat="43.54595" lon="1.4861">
        <ele>211.322</ele>
        <time>2020-04-06T15:53:29Z</time>
      </trkpt>
      <trkpt lat="43.546" lon="1.48602">
        <ele>211.249</ele>
        <time>2020-04-06T15:53:34Z</time>
      </trkpt>
      <trkpt lat="43.54602" lon="1.48589">
        <ele>211.183</ele>
        <time>2020-04-06T15:53:40Z</time>
      </trkpt>
      <trkpt lat="43.54605" lon="1.48584">
        <ele>211.141</ele>
        <time>2020-04-06T15:53:45Z</time>
      </trkpt>
      <trkpt lat="43.54607" lon="1.4858">
        <ele>211.114</ele>
        <time>2020-04-06T15:53:50Z</time>
      </trkpt>
      <trkpt lat="43.54612" lon="1.48572">
        <ele>211.064</ele>
        <time>2020-04-06T15:53:56Z</time>
      </trkpt>
      <trkpt lat="43.54617" lon="1.48569">
        <ele>211.025</ele>
        <time>2020-04-06T15:54:01Z</time>
      </trkpt>
      <trkpt lat="43.5462" lon="1.48564">
        <ele>210.988</ele>
        <time>2020-04-06T15:54:07Z</time>
      </trkpt>
      <trkpt lat="43.54623" lon="1.48554">
        <ele>210.959</ele>
        <time>2020-04-06T15:54:12Z</time>
      </trkpt>
      <trkpt lat="43.54629" lon="1.4855">
        <ele>210.93</ele>
        <time>2020-04-06T15:54:18Z</time>
      </trkpt>
      <trkpt lat="43.54633" lon="1.48548">
        <ele>210.914</ele>
        <time>2020-04-06T15:54:23Z</time>
      </trkpt>
      <trkpt lat="43.5464" lon="1.48545">
        <ele>210.9</ele>
        <time>2020-04-06T15:54:29Z</time>
      </trkpt>
      <trkpt lat="43.54646" lon="1.4854">
        <ele>210.894</ele>
        <time>2020-04-06T15:54:35Z</time>
      </trkpt>
      <trkpt lat="43.5465" lon="1.48536">
        <ele>210.893</ele>
        <time>2020-04-06T15:54:40Z</time>
      </trkpt>
      <trkpt lat="43.54655" lon="1.4853">
        <ele>210.898</ele>
        <time>2020-04-06T15:54:46Z</time>
      </trkpt>
      <trkpt lat="43.54661" lon="1.48526">
        <ele>210.906</ele>
        <time>2020-04-06T15:54:52Z</time>
      </trkpt>
      <trkpt lat="43.54666" lon="1.4852">
        <ele>210.909</ele>
        <time>2020-04-06T15:54:57Z</time>
      </trkpt>
      <trkpt lat="43.54672" lon="1.48515">
        <ele>210.913</ele>
        <time>2020-04-06T15:55:03Z</time>
      </trkpt>
      <trkpt lat="43.54674" lon="1.48513">
        <ele>210.91</ele>
        <time>2020-04-06T15:55:09Z</time>
      </trkpt>
      <trkpt lat="43.5468" lon="1.48506">
        <ele>210.901</ele>
        <time>2020-04-06T15:55:15Z</time>
      </trkpt>
      <trkpt lat="43.54687" lon="1.48502">
        <ele>210.893</ele>
        <time>2020-04-06T15:55:21Z</time>
      </trkpt>
      <trkpt lat="43.54692" lon="1.48498">
        <ele>210.89</ele>
        <time>2020-04-06T15:55:27Z</time>
      </trkpt>
      <trkpt lat="43.54697" lon="1.48498">
        <ele>210.884</ele>
        <time>2020-04-06T15:55:33Z</time>
      </trkpt>
      <trkpt lat="43.54701" lon="1.48498">
        <ele>210.868</ele>
        <time>2020-04-06T15:55:39Z</time>
      </trkpt>
      <trkpt lat="43.54702" lon="1.48496">
        <ele>210.854</ele>
        <time>2020-04-06T15:55:44Z</time>
      </trkpt>
      <trkpt lat="43.54707" lon="1.48492">
        <ele>210.817</ele>
        <time>2020-04-06T15:55:50Z</time>
      </trkpt>
      <trkpt lat="43.54713" lon="1.48487">
        <ele>210.771</ele>
        <time>2020-04-06T15:55:56Z</time>
      </trkpt>
      <trkpt lat="43.54721" lon="1.48483">
        <ele>210.725</ele>
        <time>2020-04-06T15:56:02Z</time>
      </trkpt>
      <trkpt lat="43.54727" lon="1.48479">
        <ele>210.681</ele>
        <time>2020-04-06T15:56:08Z</time>
      </trkpt>
      <trkpt lat="43.54731" lon="1.48476">
        <ele>210.644</ele>
        <time>2020-04-06T15:56:13Z</time>
      </trkpt>
      <trkpt lat="43.54735" lon="1.48472">
        <ele>210.602</ele>
        <time>2020-04-06T15:56:19Z</time>
      </trkpt>
      <trkpt lat="43.54745" lon="1.48469">
        <ele>210.586</ele>
        <time>2020-04-06T15:56:24Z</time>
      </trkpt>
      <trkpt lat="43.54748" lon="1.48468">
        <ele>210.575</ele>
        <time>2020-04-06T15:56:29Z</time>
      </trkpt>
      <trkpt lat="43.54751" lon="1.48464">
        <ele>210.564</ele>
        <time>2020-04-06T15:56:35Z</time>
      </trkpt>
      <trkpt lat="43.54755" lon="1.4846">
        <ele>210.545</ele>
        <time>2020-04-06T15:56:41Z</time>
      </trkpt>
      <trkpt lat="43.54761" lon="1.48455">
        <ele>210.515</ele>
        <time>2020-04-06T15:56:47Z</time>
      </trkpt>
      <trkpt lat="43.54765" lon="1.48451">
        <ele>210.471</ele>
        <time>2020-04-06T15:56:53Z</time>
      </trkpt>
      <trkpt lat="43.54771" lon="1.48448">
        <ele>210.419</ele>
        <time>2020-04-06T15:56:58Z</time>
      </trkpt>
      <trkpt lat="43.54775" lon="1.48446">
        <ele>210.351</ele>
        <time>2020-04-06T15:57:04Z</time>
      </trkpt>
      <trkpt lat="43.5478" lon="1.48446">
        <ele>210.275</ele>
        <time>2020-04-06T15:57:09Z</time>
      </trkpt>
      <trkpt lat="43.54786" lon="1.48446">
        <ele>210.178</ele>
        <time>2020-04-06T15:57:15Z</time>
      </trkpt>
      <trkpt lat="43.54787" lon="1.48445">
        <ele>210.118</ele>
        <time>2020-04-06T15:57:20Z</time>
      </trkpt>
      <trkpt lat="43.54789" lon="1.48444">
        <ele>210.092</ele>
        <time>2020-04-06T15:57:26Z</time>
      </trkpt>
      <trkpt lat="43.54795" lon="1.48434">
        <ele>210.029</ele>
        <time>2020-04-06T15:57:32Z</time>
      </trkpt>
      <trkpt lat="43.54796" lon="1.48429">
        <ele>209.979</ele>
        <time>2020-04-06T15:57:38Z</time>
      </trkpt>
      <trkpt lat="43.54799" lon="1.48419">
        <ele>209.915</ele>
        <time>2020-04-06T15:57:44Z</time>
      </trkpt>
      <trkpt lat="43.54805" lon="1.48413">
        <ele>209.847</ele>
        <time>2020-04-06T15:57:50Z</time>
      </trkpt>
      <trkpt lat="43.54814" lon="1.48412">
        <ele>209.777</ele>
        <time>2020-04-06T15:57:56Z</time>
      </trkpt>
      <trkpt lat="43.54817" lon="1.48408">
        <ele>209.714</ele>
        <time>2020-04-06T15:58:02Z</time>
      </trkpt>
      <trkpt lat="43.54823" lon="1.48404">
        <ele>209.658</ele>
        <time>2020-04-06T15:58:08Z</time>
      </trkpt>
      <trkpt lat="43.5483" lon="1.48403">
        <ele>209.619</ele>
        <time>2020-04-06T15:58:13Z</time>
      </trkpt>
      <trkpt lat="43.54835" lon="1.48398">
        <ele>209.581</ele>
        <time>2020-04-06T15:58:19Z</time>
      </trkpt>
      <trkpt lat="43.54842" lon="1.48395">
        <ele>209.546</ele>
        <time>2020-04-06T15:58:25Z</time>
      </trkpt>
      <trkpt lat="43.54846" lon="1.48392">
        <ele>209.514</ele>
        <time>2020-04-06T15:58:31Z</time>
      </trkpt>
      <trkpt lat="43.54851" lon="1.48389">
        <ele>209.49</ele>
        <time>2020-04-06T15:58:37Z</time>
      </trkpt>
      <trkpt lat="43.54858" lon="1.48385">
        <ele>209.47</ele>
        <time>2020-04-06T15:58:42Z</time>
      </trkpt>
      <trkpt lat="43.54865" lon="1.48381">
        <ele>209.455</ele>
        <time>2020-04-06T15:58:48Z</time>
      </trkpt>
      <trkpt lat="43.54869" lon="1.48379">
        <ele>209.449</ele>
        <time>2020-04-06T15:58:53Z</time>
      </trkpt>
      <trkpt lat="43.54872" lon="1.48377">
        <ele>209.449</ele>
        <time>2020-04-06T15:58:58Z</time>
      </trkpt>
      <trkpt lat="43.54875" lon="1.48373">
        <ele>209.452</ele>
        <time>2020-04-06T15:59:03Z</time>
      </trkpt>
      <trkpt lat="43.54879" lon="1.48367">
        <ele>209.452</ele>
        <time>2020-04-06T15:59:09Z</time>
      </trkpt>
      <trkpt lat="43.54883" lon="1.48363">
        <ele>209.445</ele>
        <time>2020-04-06T15:59:15Z</time>
      </trkpt>
      <trkpt lat="43.54887" lon="1.4836">
        <ele>209.435</ele>
        <time>2020-04-06T15:59:21Z</time>
      </trkpt>
      <trkpt lat="43.54891" lon="1.48354">
        <ele>209.421</ele>
        <time>2020-04-06T15:59:26Z</time>
      </trkpt>
      <trkpt lat="43.54897" lon="1.4835">
        <ele>209.4</ele>
        <time>2020-04-06T15:59:32Z</time>
      </trkpt>
      <trkpt lat="43.549" lon="1.48345">
        <ele>209.378</ele>
        <time>2020-04-06T15:59:38Z</time>
      </trkpt>
      <trkpt lat="43.54904" lon="1.48341">
        <ele>209.351</ele>
        <time>2020-04-06T15:59:44Z</time>
      </trkpt>
      <trkpt lat="43.54909" lon="1.48339">
        <ele>209.332</ele>
        <time>2020-04-06T15:59:49Z</time>
      </trkpt>
      <trkpt lat="43.54914" lon="1.48334">
        <ele>209.333</ele>
        <time>2020-04-06T15:59:55Z</time>
      </trkpt>
      <trkpt lat="43.54911" lon="1.48328">
        <ele>209.337</ele>
        <time>2020-04-06T16:00:00Z</time>
      </trkpt>
      <trkpt lat="43.54907" lon="1.48321">
        <ele>209.341</ele>
        <time>2020-04-06T16:00:05Z</time>
      </trkpt>
      <trkpt lat="43.54904" lon="1.48314">
        <ele>209.343</ele>
        <time>2020-04-06T16:00:11Z</time>
      </trkpt>
      <trkpt lat="43.54902" lon="1.48307">
        <ele>209.345</ele>
        <time>2020-04-06T16:00:17Z</time>
      </trkpt>
      <trkpt lat="43.54899" lon="1.48303">
        <ele>209.345</ele>
        <time>2020-04-06T16:00:22Z</time>
      </trkpt>
      <trkpt lat="43.54896" lon="1.48299">
        <ele>209.341</ele>
        <time>2020-04-06T16:00:27Z</time>
      </trkpt>
      <trkpt lat="43.54893" lon="1.48292">
        <ele>209.332</ele>
        <time>2020-04-06T16:00:33Z</time>
      </trkpt>
      <trkpt lat="43.5489" lon="1.48283">
        <ele>209.322</ele>
        <time>2020-04-06T16:00:39Z</time>
      </trkpt>
      <trkpt lat="43.54887" lon="1.48274">
        <ele>209.314</ele>
        <time>2020-04-06T16:00:44Z</time>
      </trkpt>
      <trkpt lat="43.54885" lon="1.48267">
        <ele>209.305</ele>
        <time>2020-04-06T16:00:49Z</time>
      </trkpt>
      <trkpt lat="43.54883" lon="1.4826">
        <ele>209.292</ele>
        <time>2020-04-06T16:00:54Z</time>
      </trkpt>
      <trkpt lat="43.54881" lon="1.48254">
        <ele>209.275</ele>
        <time>2020-04-06T16:00:59Z</time>
      </trkpt>
      <trkpt lat="43.54876" lon="1.48245">
        <ele>209.256</ele>
        <time>2020-04-06T16:01:05Z</time>
      </trkpt>
      <trkpt lat="43.54874" lon="1.48237">
        <ele>209.238</ele>
        <time>2020-04-06T16:01:11Z</time>
      </trkpt>
      <trkpt lat="43.54872" lon="1.4823">
        <ele>209.219</ele>
        <time>2020-04-06T16:01:16Z</time>
      </trkpt>
      <trkpt lat="43.54869" lon="1.4822">
        <ele>209.194</ele>
        <time>2020-04-06T16:01:22Z</time>
      </trkpt>
      <trkpt lat="43.54866" lon="1.48212">
        <ele>209.171</ele>
        <time>2020-04-06T16:01:28Z</time>
      </trkpt>
      <trkpt lat="43.54864" lon="1.48206">
        <ele>209.155</ele>
        <time>2020-04-06T16:01:33Z</time>
      </trkpt>
      <trkpt lat="43.54862" lon="1.48197">
        <ele>209.138</ele>
        <time>2020-04-06T16:01:39Z</time>
      </trkpt>
      <trkpt lat="43.5486" lon="1.48189">
        <ele>209.125</ele>
        <time>2020-04-06T16:01:45Z</time>
      </trkpt>
      <trkpt lat="43.54858" lon="1.48181">
        <ele>209.118</ele>
        <time>2020-04-06T16:01:50Z</time>
      </trkpt>
      <trkpt lat="43.54856" lon="1.48173">
        <ele>209.108</ele>
        <time>2020-04-06T16:01:56Z</time>
      </trkpt>
      <trkpt lat="43.54855" lon="1.48164">
        <ele>209.1</ele>
        <time>2020-04-06T16:02:01Z</time>
      </trkpt>
      <trkpt lat="43.54853" lon="1.48157">
        <ele>209.093</ele>
        <time>2020-04-06T16:02:06Z</time>
      </trkpt>
      <trkpt lat="43.54851" lon="1.4815">
        <ele>209.081</ele>
        <time>2020-04-06T16:02:12Z</time>
      </trkpt>
      <trkpt lat="43.54848" lon="1.48142">
        <ele>209.063</ele>
        <time>2020-04-06T16:02:18Z</time>
      </trkpt>
      <trkpt lat="43.54845" lon="1.48136">
        <ele>209.05</ele>
        <time>2020-04-06T16:02:23Z</time>
      </trkpt>
      <trkpt lat="43.54842" lon="1.48128">
        <ele>209.034</ele>
        <time>2020-04-06T16:02:29Z</time>
      </trkpt>
      <trkpt lat="43.54839" lon="1.48121">
        <ele>209.021</ele>
        <time>2020-04-06T16:02:34Z</time>
      </trkpt>
      <trkpt lat="43.54836" lon="1.48113">
        <ele>209.005</ele>
        <time>2020-04-06T16:02:40Z</time>
      </trkpt>
      <trkpt lat="43.54834" lon="1.48107">
        <ele>208.992</ele>
        <time>2020-04-06T16:02:45Z</time>
      </trkpt>
      <trkpt lat="43.54832" lon="1.481">
        <ele>208.978</ele>
        <time>2020-04-06T16:02:51Z</time>
      </trkpt>
      <trkpt lat="43.5483" lon="1.48092">
        <ele>208.965</ele>
        <time>2020-04-06T16:02:57Z</time>
      </trkpt>
      <trkpt lat="43.54833" lon="1.48088">
        <ele>208.958</ele>
        <time>2020-04-06T16:03:02Z</time>
      </trkpt>
      <trkpt lat="43.54839" lon="1.48086">
        <ele>208.949</ele>
        <time>2020-04-06T16:03:08Z</time>
      </trkpt>
      <trkpt lat="43.54844" lon="1.48082">
        <ele>208.944</ele>
        <time>2020-04-06T16:03:14Z</time>
      </trkpt>
      <trkpt lat="43.54849" lon="1.48078">
        <ele>208.946</ele>
        <time>2020-04-06T16:03:19Z</time>
      </trkpt>
      <trkpt lat="43.54853" lon="1.48075">
        <ele>208.956</ele>
        <time>2020-04-06T16:03:24Z</time>
      </trkpt>
      <trkpt lat="43.54856" lon="1.48072">
        <ele>208.971</ele>
        <time>2020-04-06T16:03:29Z</time>
      </trkpt>
      <trkpt lat="43.54861" lon="1.48068">
        <ele>208.996</ele>
        <time>2020-04-06T16:03:35Z</time>
      </trkpt>
      <trkpt lat="43.54865" lon="1.48064">
        <ele>209.02</ele>
        <time>2020-04-06T16:03:41Z</time>
      </trkpt>
      <trkpt lat="43.54867" lon="1.48057">
        <ele>209.041</ele>
        <time>2020-04-06T16:03:47Z</time>
      </trkpt>
      <trkpt lat="43.54871" lon="1.48051">
        <ele>209.063</ele>
        <time>2020-04-06T16:03:53Z</time>
      </trkpt>
      <trkpt lat="43.54876" lon="1.48045">
        <ele>209.082</ele>
        <time>2020-04-06T16:03:58Z</time>
      </trkpt>
      <trkpt lat="43.54881" lon="1.4804">
        <ele>209.108</ele>
        <time>2020-04-06T16:04:04Z</time>
      </trkpt>
      <trkpt lat="43.54885" lon="1.48034">
        <ele>209.13</ele>
        <time>2020-04-06T16:04:09Z</time>
      </trkpt>
      <trkpt lat="43.54891" lon="1.48029">
        <ele>209.156</ele>
        <time>2020-04-06T16:04:15Z</time>
      </trkpt>
      <trkpt lat="43.54894" lon="1.48026">
        <ele>209.174</ele>
        <time>2020-04-06T16:04:20Z</time>
      </trkpt>
      <trkpt lat="43.54899" lon="1.48023">
        <ele>209.194</ele>
        <time>2020-04-06T16:04:26Z</time>
      </trkpt>
      <trkpt lat="43.54905" lon="1.48021">
        <ele>209.213</ele>
        <time>2020-04-06T16:04:32Z</time>
      </trkpt>
      <trkpt lat="43.54912" lon="1.4802">
        <ele>209.229</ele>
        <time>2020-04-06T16:04:37Z</time>
      </trkpt>
      <trkpt lat="43.54917" lon="1.48019">
        <ele>209.247</ele>
        <time>2020-04-06T16:04:42Z</time>
      </trkpt>
      <trkpt lat="43.5492" lon="1.48014">
        <ele>209.271</ele>
        <time>2020-04-06T16:04:48Z</time>
      </trkpt>
      <trkpt lat="43.54919" lon="1.48007">
        <ele>209.283</ele>
        <time>2020-04-06T16:04:54Z</time>
      </trkpt>
      <trkpt lat="43.54918" lon="1.47999">
        <ele>209.284</ele>
        <time>2020-04-06T16:05:00Z</time>
      </trkpt>
      <trkpt lat="43.54919" lon="1.47991">
        <ele>209.281</ele>
        <time>2020-04-06T16:05:06Z</time>
      </trkpt>
      <trkpt lat="43.54921" lon="1.47982">
        <ele>209.278</ele>
        <time>2020-04-06T16:05:12Z</time>
      </trkpt>
      <trkpt lat="43.54922" lon="1.47975">
        <ele>209.277</ele>
        <time>2020-04-06T16:05:18Z</time>
      </trkpt>
      <trkpt lat="43.54924" lon="1.4797">
        <ele>209.279</ele>
        <time>2020-04-06T16:05:23Z</time>
      </trkpt>
      <trkpt lat="43.54924" lon="1.47963">
        <ele>209.284</ele>
        <time>2020-04-06T16:05:28Z</time>
      </trkpt>
      <trkpt lat="43.54922" lon="1.47952">
        <ele>209.293</ele>
        <time>2020-04-06T16:05:34Z</time>
      </trkpt>
      <trkpt lat="43.5492" lon="1.47946">
        <ele>209.301</ele>
        <time>2020-04-06T16:05:39Z</time>
      </trkpt>
      <trkpt lat="43.54919" lon="1.47943">
        <ele>209.303</ele>
        <time>2020-04-06T16:05:44Z</time>
      </trkpt>
      <trkpt lat="43.54917" lon="1.47933">
        <ele>209.298</ele>
        <time>2020-04-06T16:05:50Z</time>
      </trkpt>
      <trkpt lat="43.54916" lon="1.47926">
        <ele>209.291</ele>
        <time>2020-04-06T16:05:56Z</time>
      </trkpt>
      <trkpt lat="43.54915" lon="1.47923">
        <ele>209.283</ele>
        <time>2020-04-06T16:06:02Z</time>
      </trkpt>
      <trkpt lat="43.54915" lon="1.47917">
        <ele>209.274</ele>
        <time>2020-04-06T16:06:07Z</time>
      </trkpt>
      <trkpt lat="43.54915" lon="1.47911">
        <ele>209.265</ele>
        <time>2020-04-06T16:06:12Z</time>
      </trkpt>
      <trkpt lat="43.54914" lon="1.47905">
        <ele>209.253</ele>
        <time>2020-04-06T16:06:17Z</time>
      </trkpt>
      <trkpt lat="43.54914" lon="1.47903">
        <ele>209.243</ele>
        <time>2020-04-06T16:06:23Z</time>
      </trkpt>
      <trkpt lat="43.54914" lon="1.47903">
        <ele>209.241</ele>
        <time>2020-04-06T16:06:29Z</time>
      </trkpt>
      <trkpt lat="43.54914" lon="1.47903">
        <ele>209.24</ele>
        <time>2020-04-06T16:06:35Z</time>
      </trkpt>
      <trkpt lat="43.54914" lon="1.47902">
        <ele>209.237</ele>
        <time>2020-04-06T16:06:41Z</time>
      </trkpt>
      <trkpt lat="43.54914" lon="1.47902">
        <ele>209.234</ele>
        <time>2020-04-06T16:06:46Z</time>
      </trkpt>
      <trkpt lat="43.54914" lon="1.47902">
        <ele>209.229</ele>
        <time>2020-04-06T16:06:52Z</time>
      </trkpt>
      <trkpt lat="43.54914" lon="1.47902">
        <ele>209.22</ele>
        <time>2020-04-06T16:06:58Z</time>
      </trkpt>
      <trkpt lat="43.54913" lon="1.47897">
        <ele>209.188</ele>
        <time>2020-04-06T16:07:03Z</time>
      </trkpt>
      <trkpt lat="43.54913" lon="1.47891">
        <ele>209.155</ele>
        <time>2020-04-06T16:07:08Z</time>
      </trkpt>
      <trkpt lat="43.54912" lon="1.47881">
        <ele>209.115</ele>
        <time>2020-04-06T16:07:14Z</time>
      </trkpt>
      <trkpt lat="43.54911" lon="1.47875">
        <ele>209.081</ele>
        <time>2020-04-06T16:07:19Z</time>
      </trkpt>
      <trkpt lat="43.5491" lon="1.47868">
        <ele>209.04</ele>
        <time>2020-04-06T16:07:25Z</time>
      </trkpt>
      <trkpt lat="43.5491" lon="1.47861">
        <ele>209.005</ele>
        <time>2020-04-06T16:07:31Z</time>
      </trkpt>
      <trkpt lat="43.54912" lon="1.47849">
        <ele>208.977</ele>
        <time>2020-04-06T16:07:37Z</time>
      </trkpt>
      <trkpt lat="43.54912" lon="1.47841">
        <ele>208.959</ele>
        <time>2020-04-06T16:07:42Z</time>
      </trkpt>
      <trkpt lat="43.54911" lon="1.47834">
        <ele>208.943</ele>
        <time>2020-04-06T16:07:48Z</time>
      </trkpt>
      <trkpt lat="43.54911" lon="1.47834">
        <ele>208.943</ele>
        <time>2020-04-06T16:07:53Z</time>
      </trkpt>
      <trkpt lat="43.54911" lon="1.47833">
        <ele>208.943</ele>
        <time>2020-04-06T16:07:59Z</time>
      </trkpt>
      <trkpt lat="43.54911" lon="1.47832">
        <ele>208.945</ele>
        <time>2020-04-06T16:08:04Z</time>
      </trkpt>
      <trkpt lat="43.54911" lon="1.47832">
        <ele>208.948</ele>
        <time>2020-04-06T16:08:10Z</time>
      </trkpt>
      <trkpt lat="43.54912" lon="1.47832">
        <ele>208.971</ele>
        <time>2020-04-06T16:08:15Z</time>
      </trkpt>
      <trkpt lat="43.54911" lon="1.47828">
        <ele>209.017</ele>
        <time>2020-04-06T16:08:21Z</time>
      </trkpt>
      <trkpt lat="43.54907" lon="1.47821">
        <ele>209.06</ele>
        <time>2020-04-06T16:08:27Z</time>
      </trkpt>
      <trkpt lat="43.54903" lon="1.47814">
        <ele>209.094</ele>
        <time>2020-04-06T16:08:32Z</time>
      </trkpt>
      <trkpt lat="43.54899" lon="1.47806">
        <ele>209.133</ele>
        <time>2020-04-06T16:08:38Z</time>
      </trkpt>
      <trkpt lat="43.54894" lon="1.47796">
        <ele>209.177</ele>
        <time>2020-04-06T16:08:44Z</time>
      </trkpt>
      <trkpt lat="43.5489" lon="1.47787">
        <ele>209.226</ele>
        <time>2020-04-06T16:08:50Z</time>
      </trkpt>
      <trkpt lat="43.54888" lon="1.47781">
        <ele>209.27</ele>
        <time>2020-04-06T16:08:55Z</time>
      </trkpt>
      <trkpt lat="43.54888" lon="1.47778">
        <ele>209.314</ele>
        <time>2020-04-06T16:09:00Z</time>
      </trkpt>
      <trkpt lat="43.54892" lon="1.47774">
        <ele>209.363</ele>
        <time>2020-04-06T16:09:06Z</time>
      </trkpt>
      <trkpt lat="43.54899" lon="1.4777">
        <ele>209.41</ele>
        <time>2020-04-06T16:09:12Z</time>
      </trkpt>
      <trkpt lat="43.54904" lon="1.47768">
        <ele>209.456</ele>
        <time>2020-04-06T16:09:18Z</time>
      </trkpt>
      <trkpt lat="43.54908" lon="1.47763">
        <ele>209.505</ele>
        <time>2020-04-06T16:09:24Z</time>
      </trkpt>
      <trkpt lat="43.5491" lon="1.47762">
        <ele>209.53</ele>
        <time>2020-04-06T16:09:29Z</time>
      </trkpt>
      <trkpt lat="43.5491" lon="1.47761">
        <ele>209.535</ele>
        <time>2020-04-06T16:09:34Z</time>
      </trkpt>
      <trkpt lat="43.54912" lon="1.47761">
        <ele>209.566</ele>
        <time>2020-04-06T16:09:40Z</time>
      </trkpt>
      <trkpt lat="43.54913" lon="1.47759">
        <ele>209.604</ele>
        <time>2020-04-06T16:09:45Z</time>
      </trkpt>
      <trkpt lat="43.54915" lon="1.47753">
        <ele>209.646</ele>
        <time>2020-04-06T16:09:50Z</time>
      </trkpt>
      <trkpt lat="43.54917" lon="1.47748">
        <ele>209.684</ele>
        <time>2020-04-06T16:09:55Z</time>
      </trkpt>
      <trkpt lat="43.54922" lon="1.4774">
        <ele>209.727</ele>
        <time>2020-04-06T16:10:01Z</time>
      </trkpt>
      <trkpt lat="43.54928" lon="1.47734">
        <ele>209.767</ele>
        <time>2020-04-06T16:10:07Z</time>
      </trkpt>
      <trkpt lat="43.54933" lon="1.4773">
        <ele>209.799</ele>
        <time>2020-04-06T16:10:12Z</time>
      </trkpt>
      <trkpt lat="43.54941" lon="1.47727">
        <ele>209.835</ele>
        <time>2020-04-06T16:10:18Z</time>
      </trkpt>
      <trkpt lat="43.54945" lon="1.47724">
        <ele>209.864</ele>
        <time>2020-04-06T16:10:24Z</time>
      </trkpt>
      <trkpt lat="43.54953" lon="1.47721">
        <ele>209.89</ele>
        <time>2020-04-06T16:10:30Z</time>
      </trkpt>
      <trkpt lat="43.54957" lon="1.47718">
        <ele>209.911</ele>
        <time>2020-04-06T16:10:35Z</time>
      </trkpt>
      <trkpt lat="43.54962" lon="1.47715">
        <ele>209.938</ele>
        <time>2020-04-06T16:10:41Z</time>
      </trkpt>
      <trkpt lat="43.54967" lon="1.47711">
        <ele>209.965</ele>
        <time>2020-04-06T16:10:46Z</time>
      </trkpt>
      <trkpt lat="43.54972" lon="1.47709">
        <ele>209.999</ele>
        <time>2020-04-06T16:10:52Z</time>
      </trkpt>
      <trkpt lat="43.54978" lon="1.47705">
        <ele>210.026</ele>
        <time>2020-04-06T16:10:57Z</time>
      </trkpt>
      <trkpt lat="43.54984" lon="1.47702">
        <ele>210.057</ele>
        <time>2020-04-06T16:11:03Z</time>
      </trkpt>
      <trkpt lat="43.54989" lon="1.47698">
        <ele>210.08</ele>
        <time>2020-04-06T16:11:08Z</time>
      </trkpt>
      <trkpt lat="43.54995" lon="1.47694">
        <ele>210.104</ele>
        <time>2020-04-06T16:11:14Z</time>
      </trkpt>
      <trkpt lat="43.55004" lon="1.47692">
        <ele>210.132</ele>
        <time>2020-04-06T16:11:20Z</time>
      </trkpt>
      <trkpt lat="43.5501" lon="1.47689">
        <ele>210.163</ele>
        <time>2020-04-06T16:11:26Z</time>
      </trkpt>
      <trkpt lat="43.55014" lon="1.47686">
        <ele>210.184</ele>
        <time>2020-04-06T16:11:31Z</time>
      </trkpt>
      <trkpt lat="43.55021" lon="1.47682">
        <ele>210.201</ele>
        <time>2020-04-06T16:11:37Z</time>
      </trkpt>
      <trkpt lat="43.55026" lon="1.47679">
        <ele>210.213</ele>
        <time>2020-04-06T16:11:43Z</time>
      </trkpt>
      <trkpt lat="43.55031" lon="1.47676">
        <ele>210.224</ele>
        <time>2020-04-06T16:11:49Z</time>
      </trkpt>
      <trkpt lat="43.55035" lon="1.47673">
        <ele>210.231</ele>
        <time>2020-04-06T16:11:55Z</time>
      </trkpt>
      <trkpt lat="43.55036" lon="1.47672">
        <ele>210.232</ele>
        <time>2020-04-06T16:12:00Z</time>
      </trkpt>
      <trkpt lat="43.55037" lon="1.47672">
        <ele>210.232</ele>
        <time>2020-04-06T16:12:05Z</time>
      </trkpt>
      <trkpt lat="43.55037" lon="1.47672">
        <ele>210.231</ele>
        <time>2020-04-06T16:12:10Z</time>
      </trkpt>
      <trkpt lat="43.55037" lon="1.47672">
        <ele>210.23</ele>
        <time>2020-04-06T16:12:15Z</time>
      </trkpt>
    </trkseg>
  </trk>
</gpx>